<?xml version="1.0" encoding="UTF-8" standalone="no" ?>
<gpx xmlns="http://www.topografix.com/GPX/1/1" xmlns:xsi="http://www.w3.org/2001/XMLSchema-instance" xsi:schemaLocation="http://www.topografix.com/GPX/1/1 http://www.topografix.com/GPX/1/1/gpx.xsd" version="1.1" creator="VisuGPX - https://www.visugpx.com">
  <metadata>
    <name>vtt Tournon</name>
    <desc><![CDATA[
]]></desc>
  </metadata>
  <trk>
    <name><![CDATA[Tournon - Ladenaud 35km]]></name>
    <trkseg>
      <trkpt lat="44.4068" lon="1.00813">
        <ele>153</ele>
        <time>2020-01-13T19:41:29Z</time>
      </trkpt>
      <trkpt lat="44.40676" lon="1.00817">
        <ele>153</ele>
        <time>2020-01-13T19:41:30Z</time>
      </trkpt>
      <trkpt lat="44.40675" lon="1.00829">
        <ele>153</ele>
        <time>2020-01-13T19:41:32Z</time>
      </trkpt>
      <trkpt lat="44.40682" lon="1.00854">
        <ele>154</ele>
        <time>2020-01-13T19:41:37Z</time>
      </trkpt>
      <trkpt lat="44.40686" lon="1.009">
        <ele>155</ele>
        <time>2020-01-13T19:41:44Z</time>
      </trkpt>
      <trkpt lat="44.40686" lon="1.00927">
        <ele>155</ele>
        <time>2020-01-13T19:41:49Z</time>
      </trkpt>
      <trkpt lat="44.40677" lon="1.01008">
        <ele>154</ele>
        <time>2020-01-13T19:42:03Z</time>
      </trkpt>
      <trkpt lat="44.40682" lon="1.01042">
        <ele>154</ele>
        <time>2020-01-13T19:42:08Z</time>
      </trkpt>
      <trkpt lat="44.40744" lon="1.01216">
        <ele>153</ele>
        <time>2020-01-13T19:42:41Z</time>
      </trkpt>
      <trkpt lat="44.40751" lon="1.01242">
        <ele>152</ele>
        <time>2020-01-13T19:42:45Z</time>
      </trkpt>
      <trkpt lat="44.40762" lon="1.01302">
        <ele>150</ele>
        <time>2020-01-13T19:42:56Z</time>
      </trkpt>
      <trkpt lat="44.40785" lon="1.01462">
        <ele>156</ele>
        <time>2020-01-13T19:43:23Z</time>
      </trkpt>
      <trkpt lat="44.40805" lon="1.01526">
        <ele>162</ele>
        <time>2020-01-13T19:43:35Z</time>
      </trkpt>
      <trkpt lat="44.40824" lon="1.01563">
        <ele>167</ele>
        <time>2020-01-13T19:43:42Z</time>
      </trkpt>
      <trkpt lat="44.40874" lon="1.01636">
        <ele>173</ele>
        <time>2020-01-13T19:43:59Z</time>
      </trkpt>
      <trkpt lat="44.40896" lon="1.01659">
        <ele>175</ele>
        <time>2020-01-13T19:44:06Z</time>
      </trkpt>
      <trkpt lat="44.40937" lon="1.01684">
        <ele>177</ele>
        <time>2020-01-13T19:44:16Z</time>
      </trkpt>
      <trkpt lat="44.40941" lon="1.01689">
        <ele>177</ele>
        <time>2020-01-13T19:44:17Z</time>
      </trkpt>
      <trkpt lat="44.40906" lon="1.01785">
        <ele>181</ele>
        <time>2020-01-13T19:44:35Z</time>
      </trkpt>
      <trkpt lat="44.40878" lon="1.01825">
        <ele>183</ele>
        <time>2020-01-13T19:44:45Z</time>
      </trkpt>
      <trkpt lat="44.40848" lon="1.01859">
        <ele>185</ele>
        <time>2020-01-13T19:44:54Z</time>
      </trkpt>
      <trkpt lat="44.40831" lon="1.01894">
        <ele>187</ele>
        <time>2020-01-13T19:45:01Z</time>
      </trkpt>
      <trkpt lat="44.40806" lon="1.01957">
        <ele>184</ele>
        <time>2020-01-13T19:45:13Z</time>
      </trkpt>
      <trkpt lat="44.4074" lon="1.0217">
        <ele>180</ele>
        <time>2020-01-13T19:45:51Z</time>
      </trkpt>
      <trkpt lat="44.40607" lon="1.0246">
        <ele>188</ele>
        <time>2020-01-13T19:46:49Z</time>
      </trkpt>
      <trkpt lat="44.40588" lon="1.02508">
        <ele>188</ele>
        <time>2020-01-13T19:46:58Z</time>
      </trkpt>
      <trkpt lat="44.40587" lon="1.02521">
        <ele>188</ele>
        <time>2020-01-13T19:47:00Z</time>
      </trkpt>
      <trkpt lat="44.40591" lon="1.02526">
        <ele>188</ele>
        <time>2020-01-13T19:47:01Z</time>
      </trkpt>
      <trkpt lat="44.40606" lon="1.02533">
        <ele>187</ele>
        <time>2020-01-13T19:47:05Z</time>
      </trkpt>
      <trkpt lat="44.40638" lon="1.02557">
        <ele>187</ele>
        <time>2020-01-13T19:47:14Z</time>
      </trkpt>
      <trkpt lat="44.40677" lon="1.02582">
        <ele>188</ele>
        <time>2020-01-13T19:47:24Z</time>
      </trkpt>
      <trkpt lat="44.40864" lon="1.02692">
        <ele>195</ele>
        <time>2020-01-13T19:48:11Z</time>
      </trkpt>
      <trkpt lat="44.40875" lon="1.02702">
        <ele>195</ele>
        <time>2020-01-13T19:48:14Z</time>
      </trkpt>
      <trkpt lat="44.40865" lon="1.02853">
        <ele>197</ele>
        <time>2020-01-13T19:48:39Z</time>
      </trkpt>
      <trkpt lat="44.40851" lon="1.02877">
        <ele>198</ele>
        <time>2020-01-13T19:48:45Z</time>
      </trkpt>
      <trkpt lat="44.40833" lon="1.02888">
        <ele>200</ele>
        <time>2020-01-13T19:48:49Z</time>
      </trkpt>
      <trkpt lat="44.40775" lon="1.02933">
        <ele>202</ele>
        <time>2020-01-13T19:49:05Z</time>
      </trkpt>
      <trkpt lat="44.40726" lon="1.02986">
        <ele>204</ele>
        <time>2020-01-13T19:49:19Z</time>
      </trkpt>
      <trkpt lat="44.40716" lon="1.03001">
        <ele>206</ele>
        <time>2020-01-13T19:49:22Z</time>
      </trkpt>
      <trkpt lat="44.40714" lon="1.03009">
        <ele>207</ele>
        <time>2020-01-13T19:49:24Z</time>
      </trkpt>
      <trkpt lat="44.40713" lon="1.03079">
        <ele>210</ele>
        <time>2020-01-13T19:49:36Z</time>
      </trkpt>
      <trkpt lat="44.40715" lon="1.03136">
        <ele>209</ele>
        <time>2020-01-13T19:49:45Z</time>
      </trkpt>
      <trkpt lat="44.40727" lon="1.03303">
        <ele>203</ele>
        <time>2020-01-13T19:50:13Z</time>
      </trkpt>
      <trkpt lat="44.40726" lon="1.03498">
        <ele>205</ele>
        <time>2020-01-13T19:50:46Z</time>
      </trkpt>
      <trkpt lat="44.40728" lon="1.03494">
        <ele>205</ele>
        <time>2020-01-13T19:50:46Z</time>
      </trkpt>
      <trkpt lat="44.40736" lon="1.03493">
        <ele>204</ele>
        <time>2020-01-13T19:50:48Z</time>
      </trkpt>
      <trkpt lat="44.40764" lon="1.03508">
        <ele>203</ele>
        <time>2020-01-13T19:50:55Z</time>
      </trkpt>
      <trkpt lat="44.40797" lon="1.03531">
        <ele>205</ele>
        <time>2020-01-13T19:51:04Z</time>
      </trkpt>
      <trkpt lat="44.40839" lon="1.03553">
        <ele>206</ele>
        <time>2020-01-13T19:51:14Z</time>
      </trkpt>
      <trkpt lat="44.40918" lon="1.03625">
        <ele>206</ele>
        <time>2020-01-13T19:51:36Z</time>
      </trkpt>
      <trkpt lat="44.40936" lon="1.03658">
        <ele>203</ele>
        <time>2020-01-13T19:51:43Z</time>
      </trkpt>
      <trkpt lat="44.40961" lon="1.03719">
        <ele>203</ele>
        <time>2020-01-13T19:51:55Z</time>
      </trkpt>
      <trkpt lat="44.40974" lon="1.03734">
        <ele>204</ele>
        <time>2020-01-13T19:51:59Z</time>
      </trkpt>
      <trkpt lat="44.40981" lon="1.03731">
        <ele>204</ele>
        <time>2020-01-13T19:52:01Z</time>
      </trkpt>
      <trkpt lat="44.41002" lon="1.03712">
        <ele>203</ele>
        <time>2020-01-13T19:52:07Z</time>
      </trkpt>
      <trkpt lat="44.41028" lon="1.03697">
        <ele>206</ele>
        <time>2020-01-13T19:52:13Z</time>
      </trkpt>
      <trkpt lat="44.41043" lon="1.03683">
        <ele>207</ele>
        <time>2020-01-13T19:52:17Z</time>
      </trkpt>
      <trkpt lat="44.41096" lon="1.03666">
        <ele>211</ele>
        <time>2020-01-13T19:52:30Z</time>
      </trkpt>
      <trkpt lat="44.41134" lon="1.03661">
        <ele>214</ele>
        <time>2020-01-13T19:52:39Z</time>
      </trkpt>
      <trkpt lat="44.41141" lon="1.03658">
        <ele>214</ele>
        <time>2020-01-13T19:52:41Z</time>
      </trkpt>
      <trkpt lat="44.41166" lon="1.03641">
        <ele>215</ele>
        <time>2020-01-13T19:52:47Z</time>
      </trkpt>
      <trkpt lat="44.41197" lon="1.03615">
        <ele>211</ele>
        <time>2020-01-13T19:52:56Z</time>
      </trkpt>
      <trkpt lat="44.41246" lon="1.03589">
        <ele>211</ele>
        <time>2020-01-13T19:53:08Z</time>
      </trkpt>
      <trkpt lat="44.41253" lon="1.03586">
        <ele>211</ele>
        <time>2020-01-13T19:53:10Z</time>
      </trkpt>
      <trkpt lat="44.41256" lon="1.03588">
        <ele>210</ele>
        <time>2020-01-13T19:53:10Z</time>
      </trkpt>
      <trkpt lat="44.4125" lon="1.03631">
        <ele>212</ele>
        <time>2020-01-13T19:53:18Z</time>
      </trkpt>
      <trkpt lat="44.41233" lon="1.03661">
        <ele>214</ele>
        <time>2020-01-13T19:53:24Z</time>
      </trkpt>
      <trkpt lat="44.4122" lon="1.03692">
        <ele>215</ele>
        <time>2020-01-13T19:53:30Z</time>
      </trkpt>
      <trkpt lat="44.41182" lon="1.03759">
        <ele>222</ele>
        <time>2020-01-13T19:53:44Z</time>
      </trkpt>
      <trkpt lat="44.41162" lon="1.03806">
        <ele>226</ele>
        <time>2020-01-13T19:53:53Z</time>
      </trkpt>
      <trkpt lat="44.41155" lon="1.03841">
        <ele>227</ele>
        <time>2020-01-13T19:53:59Z</time>
      </trkpt>
      <trkpt lat="44.41157" lon="1.03862">
        <ele>226</ele>
        <time>2020-01-13T19:54:03Z</time>
      </trkpt>
      <trkpt lat="44.41156" lon="1.03946">
        <ele>223</ele>
        <time>2020-01-13T19:54:17Z</time>
      </trkpt>
      <trkpt lat="44.41164" lon="1.04004">
        <ele>224</ele>
        <time>2020-01-13T19:54:27Z</time>
      </trkpt>
      <trkpt lat="44.41168" lon="1.0407">
        <ele>222</ele>
        <time>2020-01-13T19:54:38Z</time>
      </trkpt>
      <trkpt lat="44.41168" lon="1.04223">
        <ele>219</ele>
        <time>2020-01-13T19:55:03Z</time>
      </trkpt>
      <trkpt lat="44.4116" lon="1.04357">
        <ele>219</ele>
        <time>2020-01-13T19:55:26Z</time>
      </trkpt>
      <trkpt lat="44.41163" lon="1.04386">
        <ele>219</ele>
        <time>2020-01-13T19:55:31Z</time>
      </trkpt>
      <trkpt lat="44.41172" lon="1.04412">
        <ele>218</ele>
        <time>2020-01-13T19:55:36Z</time>
      </trkpt>
      <trkpt lat="44.41216" lon="1.0449">
        <ele>215</ele>
        <time>2020-01-13T19:55:52Z</time>
      </trkpt>
      <trkpt lat="44.41227" lon="1.04516">
        <ele>213</ele>
        <time>2020-01-13T19:55:57Z</time>
      </trkpt>
      <trkpt lat="44.41227" lon="1.04542">
        <ele>211</ele>
        <time>2020-01-13T19:56:02Z</time>
      </trkpt>
      <trkpt lat="44.41215" lon="1.04616">
        <ele>209</ele>
        <time>2020-01-13T19:56:14Z</time>
      </trkpt>
      <trkpt lat="44.41216" lon="1.04621">
        <ele>209</ele>
        <time>2020-01-13T19:56:15Z</time>
      </trkpt>
      <trkpt lat="44.41225" lon="1.04619">
        <ele>208</ele>
        <time>2020-01-13T19:56:17Z</time>
      </trkpt>
      <trkpt lat="44.41248" lon="1.04596">
        <ele>206</ele>
        <time>2020-01-13T19:56:24Z</time>
      </trkpt>
      <trkpt lat="44.41268" lon="1.04587">
        <ele>205</ele>
        <time>2020-01-13T19:56:29Z</time>
      </trkpt>
      <trkpt lat="44.41284" lon="1.04584">
        <ele>204</ele>
        <time>2020-01-13T19:56:32Z</time>
      </trkpt>
      <trkpt lat="44.4131" lon="1.04606">
        <ele>203</ele>
        <time>2020-01-13T19:56:40Z</time>
      </trkpt>
      <trkpt lat="44.4132" lon="1.04618">
        <ele>203</ele>
        <time>2020-01-13T19:56:43Z</time>
      </trkpt>
      <trkpt lat="44.4133" lon="1.04625">
        <ele>203</ele>
        <time>2020-01-13T19:56:45Z</time>
      </trkpt>
      <trkpt lat="44.41342" lon="1.04626">
        <ele>203</ele>
        <time>2020-01-13T19:56:48Z</time>
      </trkpt>
      <trkpt lat="44.41347" lon="1.0463">
        <ele>204</ele>
        <time>2020-01-13T19:56:49Z</time>
      </trkpt>
      <trkpt lat="44.4135" lon="1.0464">
        <ele>204</ele>
        <time>2020-01-13T19:56:51Z</time>
      </trkpt>
      <trkpt lat="44.41356" lon="1.04649">
        <ele>205</ele>
        <time>2020-01-13T19:56:53Z</time>
      </trkpt>
      <trkpt lat="44.41372" lon="1.04666">
        <ele>206</ele>
        <time>2020-01-13T19:56:58Z</time>
      </trkpt>
      <trkpt lat="44.41399" lon="1.04704">
        <ele>205</ele>
        <time>2020-01-13T19:57:07Z</time>
      </trkpt>
      <trkpt lat="44.41415" lon="1.04706">
        <ele>204</ele>
        <time>2020-01-13T19:57:11Z</time>
      </trkpt>
      <trkpt lat="44.41432" lon="1.04714">
        <ele>203</ele>
        <time>2020-01-13T19:57:15Z</time>
      </trkpt>
      <trkpt lat="44.41449" lon="1.04717">
        <ele>203</ele>
        <time>2020-01-13T19:57:19Z</time>
      </trkpt>
      <trkpt lat="44.41455" lon="1.04721">
        <ele>203</ele>
        <time>2020-01-13T19:57:20Z</time>
      </trkpt>
      <trkpt lat="44.41463" lon="1.0475">
        <ele>201</ele>
        <time>2020-01-13T19:57:26Z</time>
      </trkpt>
      <trkpt lat="44.4146" lon="1.0476">
        <ele>201</ele>
        <time>2020-01-13T19:57:27Z</time>
      </trkpt>
      <trkpt lat="44.41453" lon="1.04765">
        <ele>202</ele>
        <time>2020-01-13T19:57:29Z</time>
      </trkpt>
      <trkpt lat="44.41409" lon="1.0478">
        <ele>203</ele>
        <time>2020-01-13T19:57:40Z</time>
      </trkpt>
      <trkpt lat="44.41338" lon="1.04791">
        <ele>210</ele>
        <time>2020-01-13T19:57:56Z</time>
      </trkpt>
      <trkpt lat="44.41294" lon="1.04812">
        <ele>212</ele>
        <time>2020-01-13T19:58:07Z</time>
      </trkpt>
      <trkpt lat="44.41265" lon="1.04836">
        <ele>214</ele>
        <time>2020-01-13T19:58:15Z</time>
      </trkpt>
      <trkpt lat="44.41252" lon="1.0485">
        <ele>214</ele>
        <time>2020-01-13T19:58:19Z</time>
      </trkpt>
      <trkpt lat="44.41235" lon="1.04877">
        <ele>214</ele>
        <time>2020-01-13T19:58:25Z</time>
      </trkpt>
      <trkpt lat="44.41162" lon="1.04978">
        <ele>221</ele>
        <time>2020-01-13T19:58:49Z</time>
      </trkpt>
      <trkpt lat="44.41121" lon="1.05025">
        <ele>223</ele>
        <time>2020-01-13T19:59:01Z</time>
      </trkpt>
      <trkpt lat="44.41111" lon="1.0504">
        <ele>224</ele>
        <time>2020-01-13T19:59:05Z</time>
      </trkpt>
      <trkpt lat="44.41098" lon="1.05072">
        <ele>226</ele>
        <time>2020-01-13T19:59:11Z</time>
      </trkpt>
      <trkpt lat="44.41091" lon="1.05098">
        <ele>227</ele>
        <time>2020-01-13T19:59:16Z</time>
      </trkpt>
      <trkpt lat="44.4107" lon="1.05146">
        <ele>226</ele>
        <time>2020-01-13T19:59:25Z</time>
      </trkpt>
      <trkpt lat="44.4107" lon="1.05157">
        <ele>226</ele>
        <time>2020-01-13T19:59:27Z</time>
      </trkpt>
      <trkpt lat="44.41081" lon="1.05181">
        <ele>226</ele>
        <time>2020-01-13T19:59:32Z</time>
      </trkpt>
      <trkpt lat="44.41093" lon="1.05225">
        <ele>225</ele>
        <time>2020-01-13T19:59:39Z</time>
      </trkpt>
      <trkpt lat="44.411" lon="1.0534">
        <ele>224</ele>
        <time>2020-01-13T19:59:59Z</time>
      </trkpt>
      <trkpt lat="44.41111" lon="1.05354">
        <ele>224</ele>
        <time>2020-01-13T20:00:02Z</time>
      </trkpt>
      <trkpt lat="44.41207" lon="1.05419">
        <ele>223</ele>
        <time>2020-01-13T20:00:27Z</time>
      </trkpt>
      <trkpt lat="44.4122" lon="1.05437">
        <ele>221</ele>
        <time>2020-01-13T20:00:31Z</time>
      </trkpt>
      <trkpt lat="44.41225" lon="1.05453">
        <ele>220</ele>
        <time>2020-01-13T20:00:34Z</time>
      </trkpt>
      <trkpt lat="44.41227" lon="1.05465">
        <ele>219</ele>
        <time>2020-01-13T20:00:36Z</time>
      </trkpt>
      <trkpt lat="44.41219" lon="1.05474">
        <ele>219</ele>
        <time>2020-01-13T20:00:39Z</time>
      </trkpt>
      <trkpt lat="44.41137" lon="1.0549">
        <ele>220</ele>
        <time>2020-01-13T20:00:58Z</time>
      </trkpt>
      <trkpt lat="44.41105" lon="1.05501">
        <ele>220</ele>
        <time>2020-01-13T20:01:06Z</time>
      </trkpt>
      <trkpt lat="44.41036" lon="1.05541">
        <ele>221</ele>
        <time>2020-01-13T20:01:23Z</time>
      </trkpt>
      <trkpt lat="44.40997" lon="1.05576">
        <ele>222</ele>
        <time>2020-01-13T20:01:34Z</time>
      </trkpt>
      <trkpt lat="44.40961" lon="1.05598">
        <ele>225</ele>
        <time>2020-01-13T20:01:43Z</time>
      </trkpt>
      <trkpt lat="44.40945" lon="1.05618">
        <ele>227</ele>
        <time>2020-01-13T20:01:48Z</time>
      </trkpt>
      <trkpt lat="44.40934" lon="1.05622">
        <ele>229</ele>
        <time>2020-01-13T20:01:51Z</time>
      </trkpt>
      <trkpt lat="44.40906" lon="1.05617">
        <ele>231</ele>
        <time>2020-01-13T20:01:57Z</time>
      </trkpt>
      <trkpt lat="44.40893" lon="1.05622">
        <ele>232</ele>
        <time>2020-01-13T20:02:01Z</time>
      </trkpt>
      <trkpt lat="44.40887" lon="1.05628">
        <ele>233</ele>
        <time>2020-01-13T20:02:02Z</time>
      </trkpt>
      <trkpt lat="44.40883" lon="1.05637">
        <ele>234</ele>
        <time>2020-01-13T20:02:04Z</time>
      </trkpt>
      <trkpt lat="44.40881" lon="1.05657">
        <ele>237</ele>
        <time>2020-01-13T20:02:07Z</time>
      </trkpt>
      <trkpt lat="44.40876" lon="1.05664">
        <ele>238</ele>
        <time>2020-01-13T20:02:09Z</time>
      </trkpt>
      <trkpt lat="44.40816" lon="1.05671">
        <ele>240</ele>
        <time>2020-01-13T20:02:23Z</time>
      </trkpt>
      <trkpt lat="44.40785" lon="1.05671">
        <ele>240</ele>
        <time>2020-01-13T20:02:30Z</time>
      </trkpt>
      <trkpt lat="44.40778" lon="1.05675">
        <ele>240</ele>
        <time>2020-01-13T20:02:32Z</time>
      </trkpt>
      <trkpt lat="44.40772" lon="1.05675">
        <ele>239</ele>
        <time>2020-01-13T20:02:34Z</time>
      </trkpt>
      <trkpt lat="44.40734" lon="1.0567">
        <ele>239</ele>
        <time>2020-01-13T20:02:42Z</time>
      </trkpt>
      <trkpt lat="44.4068" lon="1.05659">
        <ele>237</ele>
        <time>2020-01-13T20:02:55Z</time>
      </trkpt>
      <trkpt lat="44.40639" lon="1.05669">
        <ele>238</ele>
        <time>2020-01-13T20:03:05Z</time>
      </trkpt>
      <trkpt lat="44.40601" lon="1.05671">
        <ele>239</ele>
        <time>2020-01-13T20:03:14Z</time>
      </trkpt>
      <trkpt lat="44.40533" lon="1.05699">
        <ele>239</ele>
        <time>2020-01-13T20:03:30Z</time>
      </trkpt>
      <trkpt lat="44.40446" lon="1.05751">
        <ele>240</ele>
        <time>2020-01-13T20:03:52Z</time>
      </trkpt>
      <trkpt lat="44.40425" lon="1.05767">
        <ele>239</ele>
        <time>2020-01-13T20:03:58Z</time>
      </trkpt>
      <trkpt lat="44.40325" lon="1.05948">
        <ele>238</ele>
        <time>2020-01-13T20:04:36Z</time>
      </trkpt>
      <trkpt lat="44.40266" lon="1.06">
        <ele>237</ele>
        <time>2020-01-13T20:04:52Z</time>
      </trkpt>
      <trkpt lat="44.40252" lon="1.06021">
        <ele>238</ele>
        <time>2020-01-13T20:04:57Z</time>
      </trkpt>
      <trkpt lat="44.40212" lon="1.06115">
        <ele>240</ele>
        <time>2020-01-13T20:05:16Z</time>
      </trkpt>
      <trkpt lat="44.40209" lon="1.06142">
        <ele>240</ele>
        <time>2020-01-13T20:05:20Z</time>
      </trkpt>
      <trkpt lat="44.402" lon="1.06165">
        <ele>241</ele>
        <time>2020-01-13T20:05:24Z</time>
      </trkpt>
      <trkpt lat="44.402" lon="1.06179">
        <ele>242</ele>
        <time>2020-01-13T20:05:27Z</time>
      </trkpt>
      <trkpt lat="44.40237" lon="1.06249">
        <ele>244</ele>
        <time>2020-01-13T20:05:41Z</time>
      </trkpt>
      <trkpt lat="44.40246" lon="1.06303">
        <ele>245</ele>
        <time>2020-01-13T20:05:51Z</time>
      </trkpt>
      <trkpt lat="44.40247" lon="1.06344">
        <ele>246</ele>
        <time>2020-01-13T20:05:57Z</time>
      </trkpt>
      <trkpt lat="44.40251" lon="1.06368">
        <ele>247</ele>
        <time>2020-01-13T20:06:02Z</time>
      </trkpt>
      <trkpt lat="44.40275" lon="1.06422">
        <ele>250</ele>
        <time>2020-01-13T20:06:12Z</time>
      </trkpt>
      <trkpt lat="44.40296" lon="1.06478">
        <ele>251</ele>
        <time>2020-01-13T20:06:23Z</time>
      </trkpt>
      <trkpt lat="44.40317" lon="1.06556">
        <ele>251</ele>
        <time>2020-01-13T20:06:37Z</time>
      </trkpt>
      <trkpt lat="44.40323" lon="1.06603">
        <ele>250</ele>
        <time>2020-01-13T20:06:45Z</time>
      </trkpt>
      <trkpt lat="44.4033" lon="1.06626">
        <ele>250</ele>
        <time>2020-01-13T20:06:49Z</time>
      </trkpt>
      <trkpt lat="44.40349" lon="1.06668">
        <ele>248</ele>
        <time>2020-01-13T20:06:57Z</time>
      </trkpt>
      <trkpt lat="44.40371" lon="1.06699">
        <ele>246</ele>
        <time>2020-01-13T20:07:04Z</time>
      </trkpt>
      <trkpt lat="44.40394" lon="1.06723">
        <ele>244</ele>
        <time>2020-01-13T20:07:11Z</time>
      </trkpt>
      <trkpt lat="44.4041" lon="1.06746">
        <ele>243</ele>
        <time>2020-01-13T20:07:16Z</time>
      </trkpt>
      <trkpt lat="44.40447" lon="1.06835">
        <ele>240</ele>
        <time>2020-01-13T20:07:34Z</time>
      </trkpt>
      <trkpt lat="44.40488" lon="1.06957">
        <ele>240</ele>
        <time>2020-01-13T20:07:56Z</time>
      </trkpt>
      <trkpt lat="44.40494" lon="1.06982">
        <ele>241</ele>
        <time>2020-01-13T20:08:00Z</time>
      </trkpt>
      <trkpt lat="44.40497" lon="1.06996">
        <ele>241</ele>
        <time>2020-01-13T20:08:03Z</time>
      </trkpt>
      <trkpt lat="44.40491" lon="1.07064">
        <ele>242</ele>
        <time>2020-01-13T20:08:14Z</time>
      </trkpt>
      <trkpt lat="44.40474" lon="1.07155">
        <ele>243</ele>
        <time>2020-01-13T20:08:30Z</time>
      </trkpt>
      <trkpt lat="44.40468" lon="1.07169">
        <ele>243</ele>
        <time>2020-01-13T20:08:33Z</time>
      </trkpt>
      <trkpt lat="44.4047" lon="1.07245">
        <ele>242</ele>
        <time>2020-01-13T20:08:45Z</time>
      </trkpt>
      <trkpt lat="44.40477" lon="1.07298">
        <ele>241</ele>
        <time>2020-01-13T20:08:54Z</time>
      </trkpt>
      <trkpt lat="44.40488" lon="1.07341">
        <ele>241</ele>
        <time>2020-01-13T20:09:02Z</time>
      </trkpt>
      <trkpt lat="44.40519" lon="1.07424">
        <ele>243</ele>
        <time>2020-01-13T20:09:18Z</time>
      </trkpt>
      <trkpt lat="44.40541" lon="1.07507">
        <ele>247</ele>
        <time>2020-01-13T20:09:32Z</time>
      </trkpt>
      <trkpt lat="44.40554" lon="1.07536">
        <ele>247</ele>
        <time>2020-01-13T20:09:38Z</time>
      </trkpt>
      <trkpt lat="44.40591" lon="1.07597">
        <ele>244</ele>
        <time>2020-01-13T20:09:52Z</time>
      </trkpt>
      <trkpt lat="44.40635" lon="1.0771">
        <ele>241</ele>
        <time>2020-01-13T20:10:13Z</time>
      </trkpt>
      <trkpt lat="44.4065" lon="1.07765">
        <ele>241</ele>
        <time>2020-01-13T20:10:23Z</time>
      </trkpt>
      <trkpt lat="44.40668" lon="1.07873">
        <ele>238</ele>
        <time>2020-01-13T20:10:41Z</time>
      </trkpt>
      <trkpt lat="44.40695" lon="1.07983">
        <ele>235</ele>
        <time>2020-01-13T20:11:01Z</time>
      </trkpt>
      <trkpt lat="44.407" lon="1.08123">
        <ele>237</ele>
        <time>2020-01-13T20:11:24Z</time>
      </trkpt>
      <trkpt lat="44.40706" lon="1.08214">
        <ele>238</ele>
        <time>2020-01-13T20:11:39Z</time>
      </trkpt>
      <trkpt lat="44.40772" lon="1.0844">
        <ele>237</ele>
        <time>2020-01-13T20:12:20Z</time>
      </trkpt>
      <trkpt lat="44.40786" lon="1.08501">
        <ele>235</ele>
        <time>2020-01-13T20:12:31Z</time>
      </trkpt>
      <trkpt lat="44.40824" lon="1.08599">
        <ele>239</ele>
        <time>2020-01-13T20:12:49Z</time>
      </trkpt>
      <trkpt lat="44.40834" lon="1.08653">
        <ele>241</ele>
        <time>2020-01-13T20:12:59Z</time>
      </trkpt>
      <trkpt lat="44.40844" lon="1.08732">
        <ele>241</ele>
        <time>2020-01-13T20:13:12Z</time>
      </trkpt>
      <trkpt lat="44.40849" lon="1.08797">
        <ele>239</ele>
        <time>2020-01-13T20:13:23Z</time>
      </trkpt>
      <trkpt lat="44.40849" lon="1.08874">
        <ele>237</ele>
        <time>2020-01-13T20:13:36Z</time>
      </trkpt>
      <trkpt lat="44.40843" lon="1.08976">
        <ele>237</ele>
        <time>2020-01-13T20:13:53Z</time>
      </trkpt>
      <trkpt lat="44.40874" lon="1.08998">
        <ele>236</ele>
        <time>2020-01-13T20:14:01Z</time>
      </trkpt>
      <trkpt lat="44.409" lon="1.08966">
        <ele>235</ele>
        <time>2020-01-13T20:14:09Z</time>
      </trkpt>
      <trkpt lat="44.40943" lon="1.08922">
        <ele>234</ele>
        <time>2020-01-13T20:14:22Z</time>
      </trkpt>
      <trkpt lat="44.40964" lon="1.08903">
        <ele>234</ele>
        <time>2020-01-13T20:14:27Z</time>
      </trkpt>
      <trkpt lat="44.40985" lon="1.08889">
        <ele>233</ele>
        <time>2020-01-13T20:14:33Z</time>
      </trkpt>
      <trkpt lat="44.4104" lon="1.08807">
        <ele>229</ele>
        <time>2020-01-13T20:14:52Z</time>
      </trkpt>
      <trkpt lat="44.41042" lon="1.08746">
        <ele>229</ele>
        <time>2020-01-13T20:15:02Z</time>
      </trkpt>
      <trkpt lat="44.41062" lon="1.08697">
        <ele>228</ele>
        <time>2020-01-13T20:15:11Z</time>
      </trkpt>
      <trkpt lat="44.41095" lon="1.08698">
        <ele>227</ele>
        <time>2020-01-13T20:15:19Z</time>
      </trkpt>
      <trkpt lat="44.41103" lon="1.08687">
        <ele>227</ele>
        <time>2020-01-13T20:15:21Z</time>
      </trkpt>
      <trkpt lat="44.41123" lon="1.08594">
        <ele>227</ele>
        <time>2020-01-13T20:15:38Z</time>
      </trkpt>
      <trkpt lat="44.41135" lon="1.08565">
        <ele>227</ele>
        <time>2020-01-13T20:15:43Z</time>
      </trkpt>
      <trkpt lat="44.41167" lon="1.08525">
        <ele>227</ele>
        <time>2020-01-13T20:15:53Z</time>
      </trkpt>
      <trkpt lat="44.41203" lon="1.08498">
        <ele>229</ele>
        <time>2020-01-13T20:16:03Z</time>
      </trkpt>
      <trkpt lat="44.41277" lon="1.08388">
        <ele>229</ele>
        <time>2020-01-13T20:16:28Z</time>
      </trkpt>
      <trkpt lat="44.41311" lon="1.08331">
        <ele>229</ele>
        <time>2020-01-13T20:16:40Z</time>
      </trkpt>
      <trkpt lat="44.41342" lon="1.0827">
        <ele>227</ele>
        <time>2020-01-13T20:16:53Z</time>
      </trkpt>
      <trkpt lat="44.41389" lon="1.08205">
        <ele>225</ele>
        <time>2020-01-13T20:17:08Z</time>
      </trkpt>
      <trkpt lat="44.41433" lon="1.08135">
        <ele>222</ele>
        <time>2020-01-13T20:17:24Z</time>
      </trkpt>
      <trkpt lat="44.41472" lon="1.08103">
        <ele>221</ele>
        <time>2020-01-13T20:17:34Z</time>
      </trkpt>
      <trkpt lat="44.4156" lon="1.07966">
        <ele>222</ele>
        <time>2020-01-13T20:18:05Z</time>
      </trkpt>
      <trkpt lat="44.41576" lon="1.08019">
        <ele>223</ele>
        <time>2020-01-13T20:18:15Z</time>
      </trkpt>
      <trkpt lat="44.41618" lon="1.081">
        <ele>225</ele>
        <time>2020-01-13T20:18:31Z</time>
      </trkpt>
      <trkpt lat="44.41663" lon="1.08203">
        <ele>230</ele>
        <time>2020-01-13T20:18:52Z</time>
      </trkpt>
      <trkpt lat="44.41677" lon="1.08239">
        <ele>229</ele>
        <time>2020-01-13T20:18:58Z</time>
      </trkpt>
      <trkpt lat="44.4169" lon="1.08282">
        <ele>230</ele>
        <time>2020-01-13T20:19:06Z</time>
      </trkpt>
      <trkpt lat="44.41703" lon="1.083">
        <ele>230</ele>
        <time>2020-01-13T20:19:11Z</time>
      </trkpt>
      <trkpt lat="44.41764" lon="1.08371">
        <ele>229</ele>
        <time>2020-01-13T20:19:29Z</time>
      </trkpt>
      <trkpt lat="44.41797" lon="1.08418">
        <ele>230</ele>
        <time>2020-01-13T20:19:40Z</time>
      </trkpt>
      <trkpt lat="44.418" lon="1.08431">
        <ele>230</ele>
        <time>2020-01-13T20:19:42Z</time>
      </trkpt>
      <trkpt lat="44.41803" lon="1.08492">
        <ele>231</ele>
        <time>2020-01-13T20:19:53Z</time>
      </trkpt>
      <trkpt lat="44.41801" lon="1.08555">
        <ele>233</ele>
        <time>2020-01-13T20:20:03Z</time>
      </trkpt>
      <trkpt lat="44.41804" lon="1.08574">
        <ele>234</ele>
        <time>2020-01-13T20:20:06Z</time>
      </trkpt>
      <trkpt lat="44.41835" lon="1.08584">
        <ele>236</ele>
        <time>2020-01-13T20:20:14Z</time>
      </trkpt>
      <trkpt lat="44.41851" lon="1.08593">
        <ele>237</ele>
        <time>2020-01-13T20:20:18Z</time>
      </trkpt>
      <trkpt lat="44.41858" lon="1.086">
        <ele>237</ele>
        <time>2020-01-13T20:20:20Z</time>
      </trkpt>
      <trkpt lat="44.41877" lon="1.08632">
        <ele>238</ele>
        <time>2020-01-13T20:20:27Z</time>
      </trkpt>
      <trkpt lat="44.41894" lon="1.08648">
        <ele>239</ele>
        <time>2020-01-13T20:20:31Z</time>
      </trkpt>
      <trkpt lat="44.41952" lon="1.08631">
        <ele>239</ele>
        <time>2020-01-13T20:20:45Z</time>
      </trkpt>
      <trkpt lat="44.41962" lon="1.08631">
        <ele>239</ele>
        <time>2020-01-13T20:20:48Z</time>
      </trkpt>
      <trkpt lat="44.41967" lon="1.08634">
        <ele>239</ele>
        <time>2020-01-13T20:20:49Z</time>
      </trkpt>
      <trkpt lat="44.41979" lon="1.08714">
        <ele>242</ele>
        <time>2020-01-13T20:21:03Z</time>
      </trkpt>
      <trkpt lat="44.42003" lon="1.08787">
        <ele>244</ele>
        <time>2020-01-13T20:21:16Z</time>
      </trkpt>
      <trkpt lat="44.4201" lon="1.08821">
        <ele>244</ele>
        <time>2020-01-13T20:21:22Z</time>
      </trkpt>
      <trkpt lat="44.42043" lon="1.08892">
        <ele>247</ele>
        <time>2020-01-13T20:21:36Z</time>
      </trkpt>
      <trkpt lat="44.42066" lon="1.08955">
        <ele>249</ele>
        <time>2020-01-13T20:21:48Z</time>
      </trkpt>
      <trkpt lat="44.42091" lon="1.09005">
        <ele>250</ele>
        <time>2020-01-13T20:21:58Z</time>
      </trkpt>
      <trkpt lat="44.42102" lon="1.09022">
        <ele>251</ele>
        <time>2020-01-13T20:22:02Z</time>
      </trkpt>
      <trkpt lat="44.42104" lon="1.0903">
        <ele>252</ele>
        <time>2020-01-13T20:22:03Z</time>
      </trkpt>
      <trkpt lat="44.42143" lon="1.09093">
        <ele>255</ele>
        <time>2020-01-13T20:22:17Z</time>
      </trkpt>
      <trkpt lat="44.42155" lon="1.09101">
        <ele>255</ele>
        <time>2020-01-13T20:22:20Z</time>
      </trkpt>
      <trkpt lat="44.42161" lon="1.09109">
        <ele>254</ele>
        <time>2020-01-13T20:22:22Z</time>
      </trkpt>
      <trkpt lat="44.42166" lon="1.09122">
        <ele>254</ele>
        <time>2020-01-13T20:22:25Z</time>
      </trkpt>
      <trkpt lat="44.42184" lon="1.09153">
        <ele>255</ele>
        <time>2020-01-13T20:22:31Z</time>
      </trkpt>
      <trkpt lat="44.42292" lon="1.09389">
        <ele>250</ele>
        <time>2020-01-13T20:23:18Z</time>
      </trkpt>
      <trkpt lat="44.423" lon="1.09388">
        <ele>250</ele>
        <time>2020-01-13T20:23:20Z</time>
      </trkpt>
      <trkpt lat="44.42365" lon="1.09342">
        <ele>250</ele>
        <time>2020-01-13T20:23:37Z</time>
      </trkpt>
      <trkpt lat="44.42385" lon="1.09331">
        <ele>250</ele>
        <time>2020-01-13T20:23:42Z</time>
      </trkpt>
      <trkpt lat="44.42404" lon="1.09325">
        <ele>250</ele>
        <time>2020-01-13T20:23:46Z</time>
      </trkpt>
      <trkpt lat="44.42441" lon="1.09303">
        <ele>250</ele>
        <time>2020-01-13T20:23:56Z</time>
      </trkpt>
      <trkpt lat="44.42467" lon="1.09281">
        <ele>250</ele>
        <time>2020-01-13T20:24:03Z</time>
      </trkpt>
      <trkpt lat="44.42486" lon="1.0926">
        <ele>250</ele>
        <time>2020-01-13T20:24:09Z</time>
      </trkpt>
      <trkpt lat="44.42501" lon="1.09237">
        <ele>250</ele>
        <time>2020-01-13T20:24:14Z</time>
      </trkpt>
      <trkpt lat="44.42548" lon="1.09152">
        <ele>248</ele>
        <time>2020-01-13T20:24:32Z</time>
      </trkpt>
      <trkpt lat="44.42564" lon="1.09128">
        <ele>248</ele>
        <time>2020-01-13T20:24:37Z</time>
      </trkpt>
      <trkpt lat="44.42608" lon="1.09092">
        <ele>248</ele>
        <time>2020-01-13T20:24:49Z</time>
      </trkpt>
      <trkpt lat="44.42647" lon="1.09047">
        <ele>248</ele>
        <time>2020-01-13T20:25:01Z</time>
      </trkpt>
      <trkpt lat="44.42676" lon="1.09004">
        <ele>246</ele>
        <time>2020-01-13T20:25:11Z</time>
      </trkpt>
      <trkpt lat="44.42713" lon="1.08976">
        <ele>246</ele>
        <time>2020-01-13T20:25:21Z</time>
      </trkpt>
      <trkpt lat="44.4274" lon="1.08963">
        <ele>246</ele>
        <time>2020-01-13T20:25:27Z</time>
      </trkpt>
      <trkpt lat="44.428" lon="1.08946">
        <ele>246</ele>
        <time>2020-01-13T20:25:42Z</time>
      </trkpt>
      <trkpt lat="44.42833" lon="1.08934">
        <ele>246</ele>
        <time>2020-01-13T20:25:50Z</time>
      </trkpt>
      <trkpt lat="44.42853" lon="1.08921">
        <ele>246</ele>
        <time>2020-01-13T20:25:55Z</time>
      </trkpt>
      <trkpt lat="44.429" lon="1.08847">
        <ele>245</ele>
        <time>2020-01-13T20:26:11Z</time>
      </trkpt>
      <trkpt lat="44.4292" lon="1.08824">
        <ele>245</ele>
        <time>2020-01-13T20:26:17Z</time>
      </trkpt>
      <trkpt lat="44.42943" lon="1.08809">
        <ele>245</ele>
        <time>2020-01-13T20:26:23Z</time>
      </trkpt>
      <trkpt lat="44.42977" lon="1.08798">
        <ele>244</ele>
        <time>2020-01-13T20:26:31Z</time>
      </trkpt>
      <trkpt lat="44.43043" lon="1.08797">
        <ele>242</ele>
        <time>2020-01-13T20:26:47Z</time>
      </trkpt>
      <trkpt lat="44.43063" lon="1.088">
        <ele>241</ele>
        <time>2020-01-13T20:26:51Z</time>
      </trkpt>
      <trkpt lat="44.43104" lon="1.08816">
        <ele>241</ele>
        <time>2020-01-13T20:27:01Z</time>
      </trkpt>
      <trkpt lat="44.43119" lon="1.08813">
        <ele>240</ele>
        <time>2020-01-13T20:27:05Z</time>
      </trkpt>
      <trkpt lat="44.43152" lon="1.088">
        <ele>240</ele>
        <time>2020-01-13T20:27:13Z</time>
      </trkpt>
      <trkpt lat="44.43281" lon="1.0876">
        <ele>240</ele>
        <time>2020-01-13T20:27:44Z</time>
      </trkpt>
      <trkpt lat="44.4333" lon="1.08748">
        <ele>241</ele>
        <time>2020-01-13T20:27:55Z</time>
      </trkpt>
      <trkpt lat="44.43366" lon="1.08744">
        <ele>241</ele>
        <time>2020-01-13T20:28:04Z</time>
      </trkpt>
      <trkpt lat="44.43398" lon="1.08734">
        <ele>241</ele>
        <time>2020-01-13T20:28:11Z</time>
      </trkpt>
      <trkpt lat="44.43463" lon="1.08704">
        <ele>241</ele>
        <time>2020-01-13T20:28:27Z</time>
      </trkpt>
      <trkpt lat="44.43533" lon="1.08686">
        <ele>239</ele>
        <time>2020-01-13T20:28:44Z</time>
      </trkpt>
      <trkpt lat="44.43611" lon="1.08654">
        <ele>237</ele>
        <time>2020-01-13T20:29:03Z</time>
      </trkpt>
      <trkpt lat="44.4364" lon="1.0864">
        <ele>238</ele>
        <time>2020-01-13T20:29:10Z</time>
      </trkpt>
      <trkpt lat="44.43702" lon="1.086">
        <ele>237</ele>
        <time>2020-01-13T20:29:26Z</time>
      </trkpt>
      <trkpt lat="44.43723" lon="1.08592">
        <ele>236</ele>
        <time>2020-01-13T20:29:31Z</time>
      </trkpt>
      <trkpt lat="44.43796" lon="1.0855">
        <ele>236</ele>
        <time>2020-01-13T20:29:50Z</time>
      </trkpt>
      <trkpt lat="44.4382" lon="1.08533">
        <ele>234</ele>
        <time>2020-01-13T20:29:56Z</time>
      </trkpt>
      <trkpt lat="44.43889" lon="1.08499">
        <ele>230</ele>
        <time>2020-01-13T20:30:13Z</time>
      </trkpt>
      <trkpt lat="44.43926" lon="1.08487">
        <ele>229</ele>
        <time>2020-01-13T20:30:22Z</time>
      </trkpt>
      <trkpt lat="44.44004" lon="1.08493">
        <ele>230</ele>
        <time>2020-01-13T20:30:40Z</time>
      </trkpt>
      <trkpt lat="44.44041" lon="1.085">
        <ele>228</ele>
        <time>2020-01-13T20:30:49Z</time>
      </trkpt>
      <trkpt lat="44.44052" lon="1.08505">
        <ele>228</ele>
        <time>2020-01-13T20:30:52Z</time>
      </trkpt>
      <trkpt lat="44.44084" lon="1.08526">
        <ele>227</ele>
        <time>2020-01-13T20:31:00Z</time>
      </trkpt>
      <trkpt lat="44.44127" lon="1.08565">
        <ele>229</ele>
        <time>2020-01-13T20:31:12Z</time>
      </trkpt>
      <trkpt lat="44.44185" lon="1.08599">
        <ele>228</ele>
        <time>2020-01-13T20:31:26Z</time>
      </trkpt>
      <trkpt lat="44.44236" lon="1.08633">
        <ele>228</ele>
        <time>2020-01-13T20:31:40Z</time>
      </trkpt>
      <trkpt lat="44.44267" lon="1.08648">
        <ele>227</ele>
        <time>2020-01-13T20:31:47Z</time>
      </trkpt>
      <trkpt lat="44.443" lon="1.08651">
        <ele>226</ele>
        <time>2020-01-13T20:31:55Z</time>
      </trkpt>
      <trkpt lat="44.44346" lon="1.08662">
        <ele>225</ele>
        <time>2020-01-13T20:32:06Z</time>
      </trkpt>
      <trkpt lat="44.44411" lon="1.0867">
        <ele>221</ele>
        <time>2020-01-13T20:32:21Z</time>
      </trkpt>
      <trkpt lat="44.4446" lon="1.08671">
        <ele>222</ele>
        <time>2020-01-13T20:32:33Z</time>
      </trkpt>
      <trkpt lat="44.4448" lon="1.08678">
        <ele>223</ele>
        <time>2020-01-13T20:32:37Z</time>
      </trkpt>
      <trkpt lat="44.44529" lon="1.08749">
        <ele>227</ele>
        <time>2020-01-13T20:32:54Z</time>
      </trkpt>
      <trkpt lat="44.44554" lon="1.08791">
        <ele>229</ele>
        <time>2020-01-13T20:33:03Z</time>
      </trkpt>
      <trkpt lat="44.44561" lon="1.0881">
        <ele>230</ele>
        <time>2020-01-13T20:33:07Z</time>
      </trkpt>
      <trkpt lat="44.44571" lon="1.08869">
        <ele>231</ele>
        <time>2020-01-13T20:33:17Z</time>
      </trkpt>
      <trkpt lat="44.4457" lon="1.08929">
        <ele>234</ele>
        <time>2020-01-13T20:33:27Z</time>
      </trkpt>
      <trkpt lat="44.44579" lon="1.09009">
        <ele>236</ele>
        <time>2020-01-13T20:33:40Z</time>
      </trkpt>
      <trkpt lat="44.44577" lon="1.09101">
        <ele>237</ele>
        <time>2020-01-13T20:33:56Z</time>
      </trkpt>
      <trkpt lat="44.44566" lon="1.09216">
        <ele>234</ele>
        <time>2020-01-13T20:34:15Z</time>
      </trkpt>
      <trkpt lat="44.44557" lon="1.09256">
        <ele>232</ele>
        <time>2020-01-13T20:34:22Z</time>
      </trkpt>
      <trkpt lat="44.44525" lon="1.09355">
        <ele>229</ele>
        <time>2020-01-13T20:34:40Z</time>
      </trkpt>
      <trkpt lat="44.44525" lon="1.09363">
        <ele>229</ele>
        <time>2020-01-13T20:34:41Z</time>
      </trkpt>
      <trkpt lat="44.44529" lon="1.09366">
        <ele>229</ele>
        <time>2020-01-13T20:34:42Z</time>
      </trkpt>
      <trkpt lat="44.44532" lon="1.09365">
        <ele>229</ele>
        <time>2020-01-13T20:34:43Z</time>
      </trkpt>
      <trkpt lat="44.44561" lon="1.09326">
        <ele>229</ele>
        <time>2020-01-13T20:34:52Z</time>
      </trkpt>
      <trkpt lat="44.44579" lon="1.09295">
        <ele>230</ele>
        <time>2020-01-13T20:34:59Z</time>
      </trkpt>
      <trkpt lat="44.44601" lon="1.0927">
        <ele>230</ele>
        <time>2020-01-13T20:35:06Z</time>
      </trkpt>
      <trkpt lat="44.44619" lon="1.09259">
        <ele>229</ele>
        <time>2020-01-13T20:35:10Z</time>
      </trkpt>
      <trkpt lat="44.44639" lon="1.09252">
        <ele>229</ele>
        <time>2020-01-13T20:35:15Z</time>
      </trkpt>
      <trkpt lat="44.44669" lon="1.09232">
        <ele>228</ele>
        <time>2020-01-13T20:35:23Z</time>
      </trkpt>
      <trkpt lat="44.44699" lon="1.09223">
        <ele>227</ele>
        <time>2020-01-13T20:35:30Z</time>
      </trkpt>
      <trkpt lat="44.44727" lon="1.09206">
        <ele>225</ele>
        <time>2020-01-13T20:35:37Z</time>
      </trkpt>
      <trkpt lat="44.44743" lon="1.09203">
        <ele>224</ele>
        <time>2020-01-13T20:35:41Z</time>
      </trkpt>
      <trkpt lat="44.44763" lon="1.09204">
        <ele>224</ele>
        <time>2020-01-13T20:35:46Z</time>
      </trkpt>
      <trkpt lat="44.44774" lon="1.09194">
        <ele>225</ele>
        <time>2020-01-13T20:35:49Z</time>
      </trkpt>
      <trkpt lat="44.44784" lon="1.0918">
        <ele>225</ele>
        <time>2020-01-13T20:35:52Z</time>
      </trkpt>
      <trkpt lat="44.44804" lon="1.09122">
        <ele>224</ele>
        <time>2020-01-13T20:36:03Z</time>
      </trkpt>
      <trkpt lat="44.44835" lon="1.09056">
        <ele>223</ele>
        <time>2020-01-13T20:36:16Z</time>
      </trkpt>
      <trkpt lat="44.44868" lon="1.09015">
        <ele>223</ele>
        <time>2020-01-13T20:36:26Z</time>
      </trkpt>
      <trkpt lat="44.44897" lon="1.08953">
        <ele>222</ele>
        <time>2020-01-13T20:36:39Z</time>
      </trkpt>
      <trkpt lat="44.44916" lon="1.08892">
        <ele>220</ele>
        <time>2020-01-13T20:36:50Z</time>
      </trkpt>
      <trkpt lat="44.44929" lon="1.08839">
        <ele>220</ele>
        <time>2020-01-13T20:36:59Z</time>
      </trkpt>
      <trkpt lat="44.44929" lon="1.08824">
        <ele>219</ele>
        <time>2020-01-13T20:37:02Z</time>
      </trkpt>
      <trkpt lat="44.44923" lon="1.08793">
        <ele>219</ele>
        <time>2020-01-13T20:37:07Z</time>
      </trkpt>
      <trkpt lat="44.44913" lon="1.0876">
        <ele>219</ele>
        <time>2020-01-13T20:37:13Z</time>
      </trkpt>
      <trkpt lat="44.44898" lon="1.0873">
        <ele>220</ele>
        <time>2020-01-13T20:37:19Z</time>
      </trkpt>
      <trkpt lat="44.44876" lon="1.08694">
        <ele>221</ele>
        <time>2020-01-13T20:37:27Z</time>
      </trkpt>
      <trkpt lat="44.44874" lon="1.0868">
        <ele>222</ele>
        <time>2020-01-13T20:37:29Z</time>
      </trkpt>
      <trkpt lat="44.44876" lon="1.08674">
        <ele>222</ele>
        <time>2020-01-13T20:37:30Z</time>
      </trkpt>
      <trkpt lat="44.44943" lon="1.08609">
        <ele>229</ele>
        <time>2020-01-13T20:37:49Z</time>
      </trkpt>
      <trkpt lat="44.4496" lon="1.08584">
        <ele>232</ele>
        <time>2020-01-13T20:37:55Z</time>
      </trkpt>
      <trkpt lat="44.44971" lon="1.08581">
        <ele>232</ele>
        <time>2020-01-13T20:37:58Z</time>
      </trkpt>
      <trkpt lat="44.44996" lon="1.08589">
        <ele>235</ele>
        <time>2020-01-13T20:38:04Z</time>
      </trkpt>
      <trkpt lat="44.45004" lon="1.08596">
        <ele>235</ele>
        <time>2020-01-13T20:38:06Z</time>
      </trkpt>
      <trkpt lat="44.45013" lon="1.08617">
        <ele>234</ele>
        <time>2020-01-13T20:38:10Z</time>
      </trkpt>
      <trkpt lat="44.45026" lon="1.0863">
        <ele>234</ele>
        <time>2020-01-13T20:38:14Z</time>
      </trkpt>
      <trkpt lat="44.45047" lon="1.08641">
        <ele>235</ele>
        <time>2020-01-13T20:38:19Z</time>
      </trkpt>
      <trkpt lat="44.45066" lon="1.08655">
        <ele>235</ele>
        <time>2020-01-13T20:38:24Z</time>
      </trkpt>
      <trkpt lat="44.45078" lon="1.08658">
        <ele>236</ele>
        <time>2020-01-13T20:38:27Z</time>
      </trkpt>
      <trkpt lat="44.45097" lon="1.08646">
        <ele>236</ele>
        <time>2020-01-13T20:38:32Z</time>
      </trkpt>
      <trkpt lat="44.45115" lon="1.08653">
        <ele>236</ele>
        <time>2020-01-13T20:38:36Z</time>
      </trkpt>
      <trkpt lat="44.45151" lon="1.0868">
        <ele>237</ele>
        <time>2020-01-13T20:38:46Z</time>
      </trkpt>
      <trkpt lat="44.45174" lon="1.08701">
        <ele>236</ele>
        <time>2020-01-13T20:38:52Z</time>
      </trkpt>
      <trkpt lat="44.45187" lon="1.0873">
        <ele>235</ele>
        <time>2020-01-13T20:38:58Z</time>
      </trkpt>
      <trkpt lat="44.45187" lon="1.08736">
        <ele>235</ele>
        <time>2020-01-13T20:38:59Z</time>
      </trkpt>
      <trkpt lat="44.45199" lon="1.08759">
        <ele>235</ele>
        <time>2020-01-13T20:39:03Z</time>
      </trkpt>
      <trkpt lat="44.45263" lon="1.08823">
        <ele>235</ele>
        <time>2020-01-13T20:39:22Z</time>
      </trkpt>
      <trkpt lat="44.45272" lon="1.08827">
        <ele>234</ele>
        <time>2020-01-13T20:39:24Z</time>
      </trkpt>
      <trkpt lat="44.45281" lon="1.08823">
        <ele>234</ele>
        <time>2020-01-13T20:39:26Z</time>
      </trkpt>
      <trkpt lat="44.4529" lon="1.08815">
        <ele>233</ele>
        <time>2020-01-13T20:39:29Z</time>
      </trkpt>
      <trkpt lat="44.453" lon="1.08795">
        <ele>232</ele>
        <time>2020-01-13T20:39:33Z</time>
      </trkpt>
      <trkpt lat="44.45306" lon="1.08789">
        <ele>231</ele>
        <time>2020-01-13T20:39:35Z</time>
      </trkpt>
      <trkpt lat="44.45352" lon="1.08767">
        <ele>230</ele>
        <time>2020-01-13T20:39:46Z</time>
      </trkpt>
      <trkpt lat="44.45366" lon="1.08757">
        <ele>230</ele>
        <time>2020-01-13T20:39:50Z</time>
      </trkpt>
      <trkpt lat="44.45386" lon="1.087">
        <ele>228</ele>
        <time>2020-01-13T20:40:00Z</time>
      </trkpt>
      <trkpt lat="44.45388" lon="1.08685">
        <ele>228</ele>
        <time>2020-01-13T20:40:03Z</time>
      </trkpt>
      <trkpt lat="44.45386" lon="1.08679">
        <ele>227</ele>
        <time>2020-01-13T20:40:04Z</time>
      </trkpt>
      <trkpt lat="44.45359" lon="1.08672">
        <ele>227</ele>
        <time>2020-01-13T20:40:10Z</time>
      </trkpt>
      <trkpt lat="44.45345" lon="1.08662">
        <ele>227</ele>
        <time>2020-01-13T20:40:14Z</time>
      </trkpt>
      <trkpt lat="44.45345" lon="1.08658">
        <ele>227</ele>
        <time>2020-01-13T20:40:15Z</time>
      </trkpt>
      <trkpt lat="44.45363" lon="1.08604">
        <ele>224</ele>
        <time>2020-01-13T20:40:24Z</time>
      </trkpt>
      <trkpt lat="44.4539" lon="1.08541">
        <ele>223</ele>
        <time>2020-01-13T20:40:37Z</time>
      </trkpt>
      <trkpt lat="44.45396" lon="1.08516">
        <ele>223</ele>
        <time>2020-01-13T20:40:41Z</time>
      </trkpt>
      <trkpt lat="44.45392" lon="1.08503">
        <ele>223</ele>
        <time>2020-01-13T20:40:43Z</time>
      </trkpt>
      <trkpt lat="44.45358" lon="1.08484">
        <ele>222</ele>
        <time>2020-01-13T20:40:52Z</time>
      </trkpt>
      <trkpt lat="44.4535" lon="1.08473">
        <ele>221</ele>
        <time>2020-01-13T20:40:55Z</time>
      </trkpt>
      <trkpt lat="44.45351" lon="1.0847">
        <ele>221</ele>
        <time>2020-01-13T20:40:55Z</time>
      </trkpt>
      <trkpt lat="44.45392" lon="1.0844">
        <ele>224</ele>
        <time>2020-01-13T20:41:06Z</time>
      </trkpt>
      <trkpt lat="44.4544" lon="1.08413">
        <ele>228</ele>
        <time>2020-01-13T20:41:18Z</time>
      </trkpt>
      <trkpt lat="44.45462" lon="1.08387">
        <ele>230</ele>
        <time>2020-01-13T20:41:25Z</time>
      </trkpt>
      <trkpt lat="44.45471" lon="1.0837">
        <ele>231</ele>
        <time>2020-01-13T20:41:28Z</time>
      </trkpt>
      <trkpt lat="44.4548" lon="1.08343">
        <ele>232</ele>
        <time>2020-01-13T20:41:33Z</time>
      </trkpt>
      <trkpt lat="44.45501" lon="1.08225">
        <ele>231</ele>
        <time>2020-01-13T20:41:54Z</time>
      </trkpt>
      <trkpt lat="44.4551" lon="1.08205">
        <ele>231</ele>
        <time>2020-01-13T20:41:58Z</time>
      </trkpt>
      <trkpt lat="44.45511" lon="1.08181">
        <ele>230</ele>
        <time>2020-01-13T20:42:02Z</time>
      </trkpt>
      <trkpt lat="44.45517" lon="1.08154">
        <ele>230</ele>
        <time>2020-01-13T20:42:06Z</time>
      </trkpt>
      <trkpt lat="44.45533" lon="1.08115">
        <ele>230</ele>
        <time>2020-01-13T20:42:14Z</time>
      </trkpt>
      <trkpt lat="44.45574" lon="1.08065">
        <ele>231</ele>
        <time>2020-01-13T20:42:26Z</time>
      </trkpt>
      <trkpt lat="44.45614" lon="1.07974">
        <ele>232</ele>
        <time>2020-01-13T20:42:44Z</time>
      </trkpt>
      <trkpt lat="44.45623" lon="1.07942">
        <ele>232</ele>
        <time>2020-01-13T20:42:50Z</time>
      </trkpt>
      <trkpt lat="44.45631" lon="1.07885">
        <ele>231</ele>
        <time>2020-01-13T20:43:00Z</time>
      </trkpt>
      <trkpt lat="44.45644" lon="1.0784">
        <ele>231</ele>
        <time>2020-01-13T20:43:08Z</time>
      </trkpt>
      <trkpt lat="44.45654" lon="1.07782">
        <ele>229</ele>
        <time>2020-01-13T20:43:18Z</time>
      </trkpt>
      <trkpt lat="44.45673" lon="1.07731">
        <ele>229</ele>
        <time>2020-01-13T20:43:27Z</time>
      </trkpt>
      <trkpt lat="44.45705" lon="1.07681">
        <ele>228</ele>
        <time>2020-01-13T20:43:38Z</time>
      </trkpt>
      <trkpt lat="44.45717" lon="1.07654">
        <ele>228</ele>
        <time>2020-01-13T20:43:44Z</time>
      </trkpt>
      <trkpt lat="44.45738" lon="1.07595">
        <ele>225</ele>
        <time>2020-01-13T20:43:55Z</time>
      </trkpt>
      <trkpt lat="44.45752" lon="1.07533">
        <ele>226</ele>
        <time>2020-01-13T20:44:06Z</time>
      </trkpt>
      <trkpt lat="44.45751" lon="1.07526">
        <ele>226</ele>
        <time>2020-01-13T20:44:07Z</time>
      </trkpt>
      <trkpt lat="44.45732" lon="1.07509">
        <ele>226</ele>
        <time>2020-01-13T20:44:12Z</time>
      </trkpt>
      <trkpt lat="44.45656" lon="1.07416">
        <ele>224</ele>
        <time>2020-01-13T20:44:36Z</time>
      </trkpt>
      <trkpt lat="44.4565" lon="1.074">
        <ele>224</ele>
        <time>2020-01-13T20:44:39Z</time>
      </trkpt>
      <trkpt lat="44.45652" lon="1.07334">
        <ele>225</ele>
        <time>2020-01-13T20:44:50Z</time>
      </trkpt>
      <trkpt lat="44.45647" lon="1.07279">
        <ele>226</ele>
        <time>2020-01-13T20:44:59Z</time>
      </trkpt>
      <trkpt lat="44.45651" lon="1.07255">
        <ele>227</ele>
        <time>2020-01-13T20:45:03Z</time>
      </trkpt>
      <trkpt lat="44.45651" lon="1.07219">
        <ele>228</ele>
        <time>2020-01-13T20:45:09Z</time>
      </trkpt>
      <trkpt lat="44.45654" lon="1.07211">
        <ele>229</ele>
        <time>2020-01-13T20:45:11Z</time>
      </trkpt>
      <trkpt lat="44.45659" lon="1.07167">
        <ele>231</ele>
        <time>2020-01-13T20:45:18Z</time>
      </trkpt>
      <trkpt lat="44.4566" lon="1.07137">
        <ele>231</ele>
        <time>2020-01-13T20:45:23Z</time>
      </trkpt>
      <trkpt lat="44.45657" lon="1.0711">
        <ele>231</ele>
        <time>2020-01-13T20:45:28Z</time>
      </trkpt>
      <trkpt lat="44.4565" lon="1.07091">
        <ele>231</ele>
        <time>2020-01-13T20:45:31Z</time>
      </trkpt>
      <trkpt lat="44.45698" lon="1.07039">
        <ele>229</ele>
        <time>2020-01-13T20:45:45Z</time>
      </trkpt>
      <trkpt lat="44.45748" lon="1.06974">
        <ele>224</ele>
        <time>2020-01-13T20:46:01Z</time>
      </trkpt>
      <trkpt lat="44.4577" lon="1.06911">
        <ele>221</ele>
        <time>2020-01-13T20:46:13Z</time>
      </trkpt>
      <trkpt lat="44.45777" lon="1.06899">
        <ele>220</ele>
        <time>2020-01-13T20:46:15Z</time>
      </trkpt>
      <trkpt lat="44.45798" lon="1.06878">
        <ele>219</ele>
        <time>2020-01-13T20:46:21Z</time>
      </trkpt>
      <trkpt lat="44.45812" lon="1.06872">
        <ele>219</ele>
        <time>2020-01-13T20:46:25Z</time>
      </trkpt>
      <trkpt lat="44.45878" lon="1.06781">
        <ele>217</ele>
        <time>2020-01-13T20:46:47Z</time>
      </trkpt>
      <trkpt lat="44.45907" lon="1.06739">
        <ele>218</ele>
        <time>2020-01-13T20:46:56Z</time>
      </trkpt>
      <trkpt lat="44.45929" lon="1.06685">
        <ele>219</ele>
        <time>2020-01-13T20:47:07Z</time>
      </trkpt>
      <trkpt lat="44.45976" lon="1.06624">
        <ele>218</ele>
        <time>2020-01-13T20:47:22Z</time>
      </trkpt>
      <trkpt lat="44.46032" lon="1.06544">
        <ele>214</ele>
        <time>2020-01-13T20:47:40Z</time>
      </trkpt>
      <trkpt lat="44.46082" lon="1.06455">
        <ele>214</ele>
        <time>2020-01-13T20:47:59Z</time>
      </trkpt>
      <trkpt lat="44.46116" lon="1.06409">
        <ele>216</ele>
        <time>2020-01-13T20:48:10Z</time>
      </trkpt>
      <trkpt lat="44.46139" lon="1.06385">
        <ele>217</ele>
        <time>2020-01-13T20:48:17Z</time>
      </trkpt>
      <trkpt lat="44.46174" lon="1.06342">
        <ele>219</ele>
        <time>2020-01-13T20:48:28Z</time>
      </trkpt>
      <trkpt lat="44.4624" lon="1.06283">
        <ele>223</ele>
        <time>2020-01-13T20:48:46Z</time>
      </trkpt>
      <trkpt lat="44.46296" lon="1.06217">
        <ele>225</ele>
        <time>2020-01-13T20:49:03Z</time>
      </trkpt>
      <trkpt lat="44.46337" lon="1.06178">
        <ele>226</ele>
        <time>2020-01-13T20:49:15Z</time>
      </trkpt>
      <trkpt lat="44.46347" lon="1.06154">
        <ele>226</ele>
        <time>2020-01-13T20:49:19Z</time>
      </trkpt>
      <trkpt lat="44.4636" lon="1.06138">
        <ele>226</ele>
        <time>2020-01-13T20:49:23Z</time>
      </trkpt>
      <trkpt lat="44.46378" lon="1.06122">
        <ele>226</ele>
        <time>2020-01-13T20:49:28Z</time>
      </trkpt>
      <trkpt lat="44.46402" lon="1.06107">
        <ele>227</ele>
        <time>2020-01-13T20:49:34Z</time>
      </trkpt>
      <trkpt lat="44.46421" lon="1.06091">
        <ele>226</ele>
        <time>2020-01-13T20:49:40Z</time>
      </trkpt>
      <trkpt lat="44.46497" lon="1.06011">
        <ele>225</ele>
        <time>2020-01-13T20:50:02Z</time>
      </trkpt>
      <trkpt lat="44.46521" lon="1.05993">
        <ele>225</ele>
        <time>2020-01-13T20:50:08Z</time>
      </trkpt>
      <trkpt lat="44.46558" lon="1.05971">
        <ele>225</ele>
        <time>2020-01-13T20:50:18Z</time>
      </trkpt>
      <trkpt lat="44.46583" lon="1.05951">
        <ele>226</ele>
        <time>2020-01-13T20:50:24Z</time>
      </trkpt>
      <trkpt lat="44.46633" lon="1.05834">
        <ele>229</ele>
        <time>2020-01-13T20:50:47Z</time>
      </trkpt>
      <trkpt lat="44.46661" lon="1.05783">
        <ele>230</ele>
        <time>2020-01-13T20:50:58Z</time>
      </trkpt>
      <trkpt lat="44.4667" lon="1.05762">
        <ele>231</ele>
        <time>2020-01-13T20:51:02Z</time>
      </trkpt>
      <trkpt lat="44.46688" lon="1.05706">
        <ele>229</ele>
        <time>2020-01-13T20:51:12Z</time>
      </trkpt>
      <trkpt lat="44.46693" lon="1.0564">
        <ele>227</ele>
        <time>2020-01-13T20:51:23Z</time>
      </trkpt>
      <trkpt lat="44.46686" lon="1.05555">
        <ele>226</ele>
        <time>2020-01-13T20:51:37Z</time>
      </trkpt>
      <trkpt lat="44.46685" lon="1.05503">
        <ele>226</ele>
        <time>2020-01-13T20:51:46Z</time>
      </trkpt>
      <trkpt lat="44.4669" lon="1.05479">
        <ele>226</ele>
        <time>2020-01-13T20:51:50Z</time>
      </trkpt>
      <trkpt lat="44.46711" lon="1.05435">
        <ele>224</ele>
        <time>2020-01-13T20:51:59Z</time>
      </trkpt>
      <trkpt lat="44.46814" lon="1.05435">
        <ele>227</ele>
        <time>2020-01-13T20:52:23Z</time>
      </trkpt>
      <trkpt lat="44.46918" lon="1.05442">
        <ele>229</ele>
        <time>2020-01-13T20:52:47Z</time>
      </trkpt>
      <trkpt lat="44.46987" lon="1.05434">
        <ele>233</ele>
        <time>2020-01-13T20:53:04Z</time>
      </trkpt>
      <trkpt lat="44.47" lon="1.05361">
        <ele>233</ele>
        <time>2020-01-13T20:53:16Z</time>
      </trkpt>
      <trkpt lat="44.47077" lon="1.05253">
        <ele>233</ele>
        <time>2020-01-13T20:53:42Z</time>
      </trkpt>
      <trkpt lat="44.47115" lon="1.05224">
        <ele>230</ele>
        <time>2020-01-13T20:53:52Z</time>
      </trkpt>
      <trkpt lat="44.47148" lon="1.05176">
        <ele>228</ele>
        <time>2020-01-13T20:54:03Z</time>
      </trkpt>
      <trkpt lat="44.47192" lon="1.0509">
        <ele>224</ele>
        <time>2020-01-13T20:54:20Z</time>
      </trkpt>
      <trkpt lat="44.4711" lon="1.05017">
        <ele>226</ele>
        <time>2020-01-13T20:54:43Z</time>
      </trkpt>
      <trkpt lat="44.46922" lon="1.04864">
        <ele>225</ele>
        <time>2020-01-13T20:55:34Z</time>
      </trkpt>
      <trkpt lat="44.4689" lon="1.04783">
        <ele>223</ele>
        <time>2020-01-13T20:55:49Z</time>
      </trkpt>
      <trkpt lat="44.46853" lon="1.04712">
        <ele>222</ele>
        <time>2020-01-13T20:56:04Z</time>
      </trkpt>
      <trkpt lat="44.46796" lon="1.04685">
        <ele>218</ele>
        <time>2020-01-13T20:56:18Z</time>
      </trkpt>
      <trkpt lat="44.46758" lon="1.04664">
        <ele>215</ele>
        <time>2020-01-13T20:56:28Z</time>
      </trkpt>
      <trkpt lat="44.46767" lon="1.04622">
        <ele>216</ele>
        <time>2020-01-13T20:56:35Z</time>
      </trkpt>
      <trkpt lat="44.46803" lon="1.04541">
        <ele>217</ele>
        <time>2020-01-13T20:56:51Z</time>
      </trkpt>
      <trkpt lat="44.46804" lon="1.04506">
        <ele>217</ele>
        <time>2020-01-13T20:56:57Z</time>
      </trkpt>
      <trkpt lat="44.4677" lon="1.04238">
        <ele>225</ele>
        <time>2020-01-13T20:57:42Z</time>
      </trkpt>
      <trkpt lat="44.46762" lon="1.04208">
        <ele>225</ele>
        <time>2020-01-13T20:57:47Z</time>
      </trkpt>
      <trkpt lat="44.46726" lon="1.04149">
        <ele>226</ele>
        <time>2020-01-13T20:58:00Z</time>
      </trkpt>
      <trkpt lat="44.46705" lon="1.04109">
        <ele>226</ele>
        <time>2020-01-13T20:58:09Z</time>
      </trkpt>
      <trkpt lat="44.46693" lon="1.0408">
        <ele>227</ele>
        <time>2020-01-13T20:58:14Z</time>
      </trkpt>
      <trkpt lat="44.46667" lon="1.03999">
        <ele>224</ele>
        <time>2020-01-13T20:58:29Z</time>
      </trkpt>
      <trkpt lat="44.4662" lon="1.03812">
        <ele>224</ele>
        <time>2020-01-13T20:59:02Z</time>
      </trkpt>
      <trkpt lat="44.46604" lon="1.03739">
        <ele>224</ele>
        <time>2020-01-13T20:59:15Z</time>
      </trkpt>
      <trkpt lat="44.46584" lon="1.03598">
        <ele>224</ele>
        <time>2020-01-13T20:59:39Z</time>
      </trkpt>
      <trkpt lat="44.46562" lon="1.03498">
        <ele>222</ele>
        <time>2020-01-13T20:59:56Z</time>
      </trkpt>
      <trkpt lat="44.46546" lon="1.03438">
        <ele>220</ele>
        <time>2020-01-13T21:00:07Z</time>
      </trkpt>
      <trkpt lat="44.46525" lon="1.03388">
        <ele>219</ele>
        <time>2020-01-13T21:00:16Z</time>
      </trkpt>
      <trkpt lat="44.46449" lon="1.03241">
        <ele>223</ele>
        <time>2020-01-13T21:00:47Z</time>
      </trkpt>
      <trkpt lat="44.46406" lon="1.03164">
        <ele>224</ele>
        <time>2020-01-13T21:01:03Z</time>
      </trkpt>
      <trkpt lat="44.46336" lon="1.03061">
        <ele>223</ele>
        <time>2020-01-13T21:01:27Z</time>
      </trkpt>
      <trkpt lat="44.46303" lon="1.03008">
        <ele>222</ele>
        <time>2020-01-13T21:01:38Z</time>
      </trkpt>
      <trkpt lat="44.4629" lon="1.02982">
        <ele>221</ele>
        <time>2020-01-13T21:01:44Z</time>
      </trkpt>
      <trkpt lat="44.46243" lon="1.02869">
        <ele>215</ele>
        <time>2020-01-13T21:02:05Z</time>
      </trkpt>
      <trkpt lat="44.46193" lon="1.02789">
        <ele>208</ele>
        <time>2020-01-13T21:02:23Z</time>
      </trkpt>
      <trkpt lat="44.46163" lon="1.02764">
        <ele>205</ele>
        <time>2020-01-13T21:02:31Z</time>
      </trkpt>
      <trkpt lat="44.46159" lon="1.02765">
        <ele>204</ele>
        <time>2020-01-13T21:02:32Z</time>
      </trkpt>
      <trkpt lat="44.46147" lon="1.02776">
        <ele>203</ele>
        <time>2020-01-13T21:02:36Z</time>
      </trkpt>
      <trkpt lat="44.46128" lon="1.02786">
        <ele>201</ele>
        <time>2020-01-13T21:02:40Z</time>
      </trkpt>
      <trkpt lat="44.4611" lon="1.02801">
        <ele>200</ele>
        <time>2020-01-13T21:02:45Z</time>
      </trkpt>
      <trkpt lat="44.46078" lon="1.02784">
        <ele>196</ele>
        <time>2020-01-13T21:02:53Z</time>
      </trkpt>
      <trkpt lat="44.46007" lon="1.02733">
        <ele>188</ele>
        <time>2020-01-13T21:03:12Z</time>
      </trkpt>
      <trkpt lat="44.46002" lon="1.02727">
        <ele>187</ele>
        <time>2020-01-13T21:03:13Z</time>
      </trkpt>
      <trkpt lat="44.46002" lon="1.02722">
        <ele>188</ele>
        <time>2020-01-13T21:03:14Z</time>
      </trkpt>
      <trkpt lat="44.46013" lon="1.02708">
        <ele>190</ele>
        <time>2020-01-13T21:03:18Z</time>
      </trkpt>
      <trkpt lat="44.46011" lon="1.02691">
        <ele>190</ele>
        <time>2020-01-13T21:03:21Z</time>
      </trkpt>
      <trkpt lat="44.46" lon="1.02684">
        <ele>189</ele>
        <time>2020-01-13T21:03:23Z</time>
      </trkpt>
      <trkpt lat="44.45962" lon="1.02677">
        <ele>184</ele>
        <time>2020-01-13T21:03:32Z</time>
      </trkpt>
      <trkpt lat="44.4593" lon="1.02668">
        <ele>180</ele>
        <time>2020-01-13T21:03:40Z</time>
      </trkpt>
      <trkpt lat="44.45906" lon="1.02657">
        <ele>177</ele>
        <time>2020-01-13T21:03:46Z</time>
      </trkpt>
      <trkpt lat="44.45907" lon="1.02682">
        <ele>175</ele>
        <time>2020-01-13T21:03:50Z</time>
      </trkpt>
      <trkpt lat="44.45905" lon="1.02692">
        <ele>174</ele>
        <time>2020-01-13T21:03:52Z</time>
      </trkpt>
      <trkpt lat="44.45902" lon="1.02694">
        <ele>173</ele>
        <time>2020-01-13T21:03:53Z</time>
      </trkpt>
      <trkpt lat="44.45866" lon="1.02695">
        <ele>167</ele>
        <time>2020-01-13T21:04:01Z</time>
      </trkpt>
      <trkpt lat="44.45856" lon="1.02719">
        <ele>164</ele>
        <time>2020-01-13T21:04:06Z</time>
      </trkpt>
      <trkpt lat="44.45852" lon="1.02716">
        <ele>163</ele>
        <time>2020-01-13T21:04:07Z</time>
      </trkpt>
      <trkpt lat="44.45838" lon="1.02683">
        <ele>162</ele>
        <time>2020-01-13T21:04:13Z</time>
      </trkpt>
      <trkpt lat="44.45831" lon="1.02646">
        <ele>161</ele>
        <time>2020-01-13T21:04:19Z</time>
      </trkpt>
      <trkpt lat="44.45833" lon="1.02588">
        <ele>162</ele>
        <time>2020-01-13T21:04:29Z</time>
      </trkpt>
      <trkpt lat="44.45831" lon="1.0256">
        <ele>162</ele>
        <time>2020-01-13T21:04:34Z</time>
      </trkpt>
      <trkpt lat="44.45818" lon="1.02507">
        <ele>162</ele>
        <time>2020-01-13T21:04:43Z</time>
      </trkpt>
      <trkpt lat="44.45785" lon="1.02437">
        <ele>163</ele>
        <time>2020-01-13T21:04:57Z</time>
      </trkpt>
      <trkpt lat="44.45767" lon="1.02325">
        <ele>162</ele>
        <time>2020-01-13T21:05:16Z</time>
      </trkpt>
      <trkpt lat="44.45757" lon="1.02297">
        <ele>162</ele>
        <time>2020-01-13T21:05:22Z</time>
      </trkpt>
      <trkpt lat="44.45754" lon="1.02293">
        <ele>161</ele>
        <time>2020-01-13T21:05:23Z</time>
      </trkpt>
      <trkpt lat="44.45722" lon="1.02288">
        <ele>162</ele>
        <time>2020-01-13T21:05:30Z</time>
      </trkpt>
      <trkpt lat="44.45693" lon="1.02267">
        <ele>161</ele>
        <time>2020-01-13T21:05:38Z</time>
      </trkpt>
      <trkpt lat="44.45618" lon="1.02242">
        <ele>163</ele>
        <time>2020-01-13T21:05:56Z</time>
      </trkpt>
      <trkpt lat="44.45596" lon="1.02225">
        <ele>163</ele>
        <time>2020-01-13T21:06:02Z</time>
      </trkpt>
      <trkpt lat="44.45571" lon="1.02201">
        <ele>160</ele>
        <time>2020-01-13T21:06:09Z</time>
      </trkpt>
      <trkpt lat="44.45554" lon="1.02175">
        <ele>156</ele>
        <time>2020-01-13T21:06:14Z</time>
      </trkpt>
      <trkpt lat="44.45545" lon="1.02156">
        <ele>154</ele>
        <time>2020-01-13T21:06:18Z</time>
      </trkpt>
      <trkpt lat="44.45536" lon="1.02155">
        <ele>155</ele>
        <time>2020-01-13T21:06:20Z</time>
      </trkpt>
      <trkpt lat="44.45529" lon="1.02158">
        <ele>155</ele>
        <time>2020-01-13T21:06:22Z</time>
      </trkpt>
      <trkpt lat="44.45499" lon="1.02176">
        <ele>158</ele>
        <time>2020-01-13T21:06:30Z</time>
      </trkpt>
      <trkpt lat="44.45447" lon="1.02214">
        <ele>161</ele>
        <time>2020-01-13T21:06:43Z</time>
      </trkpt>
      <trkpt lat="44.45412" lon="1.02243">
        <ele>161</ele>
        <time>2020-01-13T21:06:53Z</time>
      </trkpt>
      <trkpt lat="44.45363" lon="1.02293">
        <ele>166</ele>
        <time>2020-01-13T21:07:07Z</time>
      </trkpt>
      <trkpt lat="44.45347" lon="1.02305">
        <ele>166</ele>
        <time>2020-01-13T21:07:11Z</time>
      </trkpt>
      <trkpt lat="44.45262" lon="1.02345">
        <ele>168</ele>
        <time>2020-01-13T21:07:32Z</time>
      </trkpt>
      <trkpt lat="44.45231" lon="1.02356">
        <ele>169</ele>
        <time>2020-01-13T21:07:40Z</time>
      </trkpt>
      <trkpt lat="44.45186" lon="1.02368">
        <ele>170</ele>
        <time>2020-01-13T21:07:50Z</time>
      </trkpt>
      <trkpt lat="44.45159" lon="1.02384">
        <ele>169</ele>
        <time>2020-01-13T21:07:57Z</time>
      </trkpt>
      <trkpt lat="44.45117" lon="1.02447">
        <ele>172</ele>
        <time>2020-01-13T21:08:12Z</time>
      </trkpt>
      <trkpt lat="44.45109" lon="1.02452">
        <ele>172</ele>
        <time>2020-01-13T21:08:14Z</time>
      </trkpt>
      <trkpt lat="44.45104" lon="1.0245">
        <ele>171</ele>
        <time>2020-01-13T21:08:15Z</time>
      </trkpt>
      <trkpt lat="44.4506" lon="1.02396">
        <ele>170</ele>
        <time>2020-01-13T21:08:29Z</time>
      </trkpt>
      <trkpt lat="44.45041" lon="1.02383">
        <ele>171</ele>
        <time>2020-01-13T21:08:33Z</time>
      </trkpt>
      <trkpt lat="44.45013" lon="1.02336">
        <ele>168</ele>
        <time>2020-01-13T21:08:44Z</time>
      </trkpt>
      <trkpt lat="44.44964" lon="1.02276">
        <ele>175</ele>
        <time>2020-01-13T21:08:59Z</time>
      </trkpt>
      <trkpt lat="44.44945" lon="1.02234">
        <ele>177</ele>
        <time>2020-01-13T21:09:07Z</time>
      </trkpt>
      <trkpt lat="44.4494" lon="1.02213">
        <ele>177</ele>
        <time>2020-01-13T21:09:11Z</time>
      </trkpt>
      <trkpt lat="44.44932" lon="1.02193">
        <ele>176</ele>
        <time>2020-01-13T21:09:15Z</time>
      </trkpt>
      <trkpt lat="44.44903" lon="1.02175">
        <ele>175</ele>
        <time>2020-01-13T21:09:22Z</time>
      </trkpt>
      <trkpt lat="44.44863" lon="1.02161">
        <ele>175</ele>
        <time>2020-01-13T21:09:32Z</time>
      </trkpt>
      <trkpt lat="44.44749" lon="1.02151">
        <ele>179</ele>
        <time>2020-01-13T21:09:58Z</time>
      </trkpt>
      <trkpt lat="44.44731" lon="1.02146">
        <ele>180</ele>
        <time>2020-01-13T21:10:03Z</time>
      </trkpt>
      <trkpt lat="44.447" lon="1.02131">
        <ele>181</ele>
        <time>2020-01-13T21:10:10Z</time>
      </trkpt>
      <trkpt lat="44.44681" lon="1.02118">
        <ele>182</ele>
        <time>2020-01-13T21:10:15Z</time>
      </trkpt>
      <trkpt lat="44.44646" lon="1.02119">
        <ele>182</ele>
        <time>2020-01-13T21:10:23Z</time>
      </trkpt>
      <trkpt lat="44.44625" lon="1.02124">
        <ele>183</ele>
        <time>2020-01-13T21:10:28Z</time>
      </trkpt>
      <trkpt lat="44.44595" lon="1.02122">
        <ele>184</ele>
        <time>2020-01-13T21:10:35Z</time>
      </trkpt>
      <trkpt lat="44.44579" lon="1.02118">
        <ele>184</ele>
        <time>2020-01-13T21:10:39Z</time>
      </trkpt>
      <trkpt lat="44.44532" lon="1.02098">
        <ele>184</ele>
        <time>2020-01-13T21:10:51Z</time>
      </trkpt>
      <trkpt lat="44.44519" lon="1.0209">
        <ele>184</ele>
        <time>2020-01-13T21:10:54Z</time>
      </trkpt>
      <trkpt lat="44.44513" lon="1.02076">
        <ele>184</ele>
        <time>2020-01-13T21:10:57Z</time>
      </trkpt>
      <trkpt lat="44.44512" lon="1.02041">
        <ele>186</ele>
        <time>2020-01-13T21:11:03Z</time>
      </trkpt>
      <trkpt lat="44.44505" lon="1.02021">
        <ele>186</ele>
        <time>2020-01-13T21:11:06Z</time>
      </trkpt>
      <trkpt lat="44.44484" lon="1.02">
        <ele>188</ele>
        <time>2020-01-13T21:11:12Z</time>
      </trkpt>
      <trkpt lat="44.4447" lon="1.01969">
        <ele>191</ele>
        <time>2020-01-13T21:11:18Z</time>
      </trkpt>
      <trkpt lat="44.44445" lon="1.01939">
        <ele>194</ele>
        <time>2020-01-13T21:11:26Z</time>
      </trkpt>
      <trkpt lat="44.44434" lon="1.01932">
        <ele>195</ele>
        <time>2020-01-13T21:11:29Z</time>
      </trkpt>
      <trkpt lat="44.44425" lon="1.01922">
        <ele>196</ele>
        <time>2020-01-13T21:11:32Z</time>
      </trkpt>
      <trkpt lat="44.44403" lon="1.01888">
        <ele>197</ele>
        <time>2020-01-13T21:11:39Z</time>
      </trkpt>
      <trkpt lat="44.4439" lon="1.01878">
        <ele>197</ele>
        <time>2020-01-13T21:11:43Z</time>
      </trkpt>
      <trkpt lat="44.44379" lon="1.01878">
        <ele>198</ele>
        <time>2020-01-13T21:11:45Z</time>
      </trkpt>
      <trkpt lat="44.44354" lon="1.01897">
        <ele>198</ele>
        <time>2020-01-13T21:11:52Z</time>
      </trkpt>
      <trkpt lat="44.44334" lon="1.01906">
        <ele>199</ele>
        <time>2020-01-13T21:11:57Z</time>
      </trkpt>
      <trkpt lat="44.44326" lon="1.01913">
        <ele>199</ele>
        <time>2020-01-13T21:11:59Z</time>
      </trkpt>
      <trkpt lat="44.44312" lon="1.01944">
        <ele>200</ele>
        <time>2020-01-13T21:12:05Z</time>
      </trkpt>
      <trkpt lat="44.44302" lon="1.01952">
        <ele>201</ele>
        <time>2020-01-13T21:12:08Z</time>
      </trkpt>
      <trkpt lat="44.44273" lon="1.01953">
        <ele>203</ele>
        <time>2020-01-13T21:12:15Z</time>
      </trkpt>
      <trkpt lat="44.44257" lon="1.0195">
        <ele>204</ele>
        <time>2020-01-13T21:12:18Z</time>
      </trkpt>
      <trkpt lat="44.44246" lon="1.01944">
        <ele>205</ele>
        <time>2020-01-13T21:12:21Z</time>
      </trkpt>
      <trkpt lat="44.44241" lon="1.01944">
        <ele>205</ele>
        <time>2020-01-13T21:12:22Z</time>
      </trkpt>
      <trkpt lat="44.44237" lon="1.0194">
        <ele>206</ele>
        <time>2020-01-13T21:12:23Z</time>
      </trkpt>
      <trkpt lat="44.44231" lon="1.01897">
        <ele>205</ele>
        <time>2020-01-13T21:12:31Z</time>
      </trkpt>
      <trkpt lat="44.44215" lon="1.01861">
        <ele>206</ele>
        <time>2020-01-13T21:12:38Z</time>
      </trkpt>
      <trkpt lat="44.44196" lon="1.01826">
        <ele>207</ele>
        <time>2020-01-13T21:12:45Z</time>
      </trkpt>
      <trkpt lat="44.4419" lon="1.01803">
        <ele>208</ele>
        <time>2020-01-13T21:12:49Z</time>
      </trkpt>
      <trkpt lat="44.44185" lon="1.0166">
        <ele>212</ele>
        <time>2020-01-13T21:13:13Z</time>
      </trkpt>
      <trkpt lat="44.4418" lon="1.01623">
        <ele>213</ele>
        <time>2020-01-13T21:13:19Z</time>
      </trkpt>
      <trkpt lat="44.44168" lon="1.01579">
        <ele>213</ele>
        <time>2020-01-13T21:13:27Z</time>
      </trkpt>
      <trkpt lat="44.4417" lon="1.01564">
        <ele>213</ele>
        <time>2020-01-13T21:13:30Z</time>
      </trkpt>
      <trkpt lat="44.44202" lon="1.01529">
        <ele>215</ele>
        <time>2020-01-13T21:13:39Z</time>
      </trkpt>
      <trkpt lat="44.44228" lon="1.0148">
        <ele>216</ele>
        <time>2020-01-13T21:13:49Z</time>
      </trkpt>
      <trkpt lat="44.44255" lon="1.01437">
        <ele>217</ele>
        <time>2020-01-13T21:13:59Z</time>
      </trkpt>
      <trkpt lat="44.44258" lon="1.01419">
        <ele>217</ele>
        <time>2020-01-13T21:14:02Z</time>
      </trkpt>
      <trkpt lat="44.44234" lon="1.01348">
        <ele>217</ele>
        <time>2020-01-13T21:14:15Z</time>
      </trkpt>
      <trkpt lat="44.44193" lon="1.01252">
        <ele>221</ele>
        <time>2020-01-13T21:14:34Z</time>
      </trkpt>
      <trkpt lat="44.44195" lon="1.01243">
        <ele>222</ele>
        <time>2020-01-13T21:14:35Z</time>
      </trkpt>
      <trkpt lat="44.44203" lon="1.01236">
        <ele>222</ele>
        <time>2020-01-13T21:14:38Z</time>
      </trkpt>
      <trkpt lat="44.44211" lon="1.01223">
        <ele>223</ele>
        <time>2020-01-13T21:14:41Z</time>
      </trkpt>
      <trkpt lat="44.44232" lon="1.01178">
        <ele>225</ele>
        <time>2020-01-13T21:14:49Z</time>
      </trkpt>
      <trkpt lat="44.44264" lon="1.01134">
        <ele>226</ele>
        <time>2020-01-13T21:15:00Z</time>
      </trkpt>
      <trkpt lat="44.44268" lon="1.01119">
        <ele>226</ele>
        <time>2020-01-13T21:15:03Z</time>
      </trkpt>
      <trkpt lat="44.44256" lon="1.01098">
        <ele>227</ele>
        <time>2020-01-13T21:15:07Z</time>
      </trkpt>
      <trkpt lat="44.44255" lon="1.01092">
        <ele>228</ele>
        <time>2020-01-13T21:15:08Z</time>
      </trkpt>
      <trkpt lat="44.44279" lon="1.01066">
        <ele>227</ele>
        <time>2020-01-13T21:15:15Z</time>
      </trkpt>
      <trkpt lat="44.44293" lon="1.01047">
        <ele>226</ele>
        <time>2020-01-13T21:15:20Z</time>
      </trkpt>
      <trkpt lat="44.44323" lon="1.01029">
        <ele>226</ele>
        <time>2020-01-13T21:15:27Z</time>
      </trkpt>
      <trkpt lat="44.4434" lon="1.00995">
        <ele>226</ele>
        <time>2020-01-13T21:15:34Z</time>
      </trkpt>
      <trkpt lat="44.44379" lon="1.00891">
        <ele>219</ele>
        <time>2020-01-13T21:15:54Z</time>
      </trkpt>
      <trkpt lat="44.44379" lon="1.00853">
        <ele>216</ele>
        <time>2020-01-13T21:16:00Z</time>
      </trkpt>
      <trkpt lat="44.44371" lon="1.00846">
        <ele>215</ele>
        <time>2020-01-13T21:16:02Z</time>
      </trkpt>
      <trkpt lat="44.44355" lon="1.00843">
        <ele>215</ele>
        <time>2020-01-13T21:16:06Z</time>
      </trkpt>
      <trkpt lat="44.44335" lon="1.00824">
        <ele>213</ele>
        <time>2020-01-13T21:16:12Z</time>
      </trkpt>
      <trkpt lat="44.44271" lon="1.00804">
        <ele>208</ele>
        <time>2020-01-13T21:16:27Z</time>
      </trkpt>
      <trkpt lat="44.44266" lon="1.00796">
        <ele>207</ele>
        <time>2020-01-13T21:16:29Z</time>
      </trkpt>
      <trkpt lat="44.44265" lon="1.00789">
        <ele>206</ele>
        <time>2020-01-13T21:16:30Z</time>
      </trkpt>
      <trkpt lat="44.44271" lon="1.00739">
        <ele>200</ele>
        <time>2020-01-13T21:16:39Z</time>
      </trkpt>
      <trkpt lat="44.44267" lon="1.00723">
        <ele>199</ele>
        <time>2020-01-13T21:16:41Z</time>
      </trkpt>
      <trkpt lat="44.44247" lon="1.00693">
        <ele>196</ele>
        <time>2020-01-13T21:16:48Z</time>
      </trkpt>
      <trkpt lat="44.44243" lon="1.00645">
        <ele>192</ele>
        <time>2020-01-13T21:16:56Z</time>
      </trkpt>
      <trkpt lat="44.44249" lon="1.00611">
        <ele>188</ele>
        <time>2020-01-13T21:17:02Z</time>
      </trkpt>
      <trkpt lat="44.44262" lon="1.00582">
        <ele>185</ele>
        <time>2020-01-13T21:17:08Z</time>
      </trkpt>
      <trkpt lat="44.44281" lon="1.00566">
        <ele>185</ele>
        <time>2020-01-13T21:17:13Z</time>
      </trkpt>
      <trkpt lat="44.44293" lon="1.00567">
        <ele>186</ele>
        <time>2020-01-13T21:17:16Z</time>
      </trkpt>
      <trkpt lat="44.44304" lon="1.00576">
        <ele>187</ele>
        <time>2020-01-13T21:17:19Z</time>
      </trkpt>
      <trkpt lat="44.44324" lon="1.00606">
        <ele>191</ele>
        <time>2020-01-13T21:17:26Z</time>
      </trkpt>
      <trkpt lat="44.44328" lon="1.00605">
        <ele>191</ele>
        <time>2020-01-13T21:17:27Z</time>
      </trkpt>
      <trkpt lat="44.44331" lon="1.00601">
        <ele>191</ele>
        <time>2020-01-13T21:17:28Z</time>
      </trkpt>
      <trkpt lat="44.44329" lon="1.0053">
        <ele>187</ele>
        <time>2020-01-13T21:17:39Z</time>
      </trkpt>
      <trkpt lat="44.44326" lon="1.00513">
        <ele>186</ele>
        <time>2020-01-13T21:17:42Z</time>
      </trkpt>
      <trkpt lat="44.44315" lon="1.00487">
        <ele>185</ele>
        <time>2020-01-13T21:17:47Z</time>
      </trkpt>
      <trkpt lat="44.44304" lon="1.00472">
        <ele>184</ele>
        <time>2020-01-13T21:17:51Z</time>
      </trkpt>
      <trkpt lat="44.44276" lon="1.00446">
        <ele>181</ele>
        <time>2020-01-13T21:17:59Z</time>
      </trkpt>
      <trkpt lat="44.4424" lon="1.00426">
        <ele>176</ele>
        <time>2020-01-13T21:18:08Z</time>
      </trkpt>
      <trkpt lat="44.44176" lon="1.00385">
        <ele>175</ele>
        <time>2020-01-13T21:18:24Z</time>
      </trkpt>
      <trkpt lat="44.44162" lon="1.00383">
        <ele>174</ele>
        <time>2020-01-13T21:18:28Z</time>
      </trkpt>
      <trkpt lat="44.44147" lon="1.00387">
        <ele>173</ele>
        <time>2020-01-13T21:18:31Z</time>
      </trkpt>
      <trkpt lat="44.44113" lon="1.00387">
        <ele>171</ele>
        <time>2020-01-13T21:18:39Z</time>
      </trkpt>
      <trkpt lat="44.44088" lon="1.00384">
        <ele>171</ele>
        <time>2020-01-13T21:18:45Z</time>
      </trkpt>
      <trkpt lat="44.44049" lon="1.00369">
        <ele>169</ele>
        <time>2020-01-13T21:18:54Z</time>
      </trkpt>
      <trkpt lat="44.44032" lon="1.00355">
        <ele>167</ele>
        <time>2020-01-13T21:18:59Z</time>
      </trkpt>
      <trkpt lat="44.43984" lon="1.00299">
        <ele>163</ele>
        <time>2020-01-13T21:19:14Z</time>
      </trkpt>
      <trkpt lat="44.43967" lon="1.00272">
        <ele>163</ele>
        <time>2020-01-13T21:19:20Z</time>
      </trkpt>
      <trkpt lat="44.43956" lon="1.00249">
        <ele>161</ele>
        <time>2020-01-13T21:19:24Z</time>
      </trkpt>
      <trkpt lat="44.43941" lon="1.00184">
        <ele>160</ele>
        <time>2020-01-13T21:19:36Z</time>
      </trkpt>
      <trkpt lat="44.43925" lon="1.00146">
        <ele>155</ele>
        <time>2020-01-13T21:19:43Z</time>
      </trkpt>
      <trkpt lat="44.43907" lon="1.00091">
        <ele>149</ele>
        <time>2020-01-13T21:19:53Z</time>
      </trkpt>
      <trkpt lat="44.43891" lon="0.99999">
        <ele>140</ele>
        <time>2020-01-13T21:20:09Z</time>
      </trkpt>
      <trkpt lat="44.43891" lon="0.99938">
        <ele>138</ele>
        <time>2020-01-13T21:20:19Z</time>
      </trkpt>
      <trkpt lat="44.43893" lon="0.99923">
        <ele>137</ele>
        <time>2020-01-13T21:20:22Z</time>
      </trkpt>
      <trkpt lat="44.43931" lon="0.99882">
        <ele>138</ele>
        <time>2020-01-13T21:20:33Z</time>
      </trkpt>
      <trkpt lat="44.43945" lon="0.99871">
        <ele>138</ele>
        <time>2020-01-13T21:20:36Z</time>
      </trkpt>
      <trkpt lat="44.44027" lon="0.99832">
        <ele>136</ele>
        <time>2020-01-13T21:20:57Z</time>
      </trkpt>
      <trkpt lat="44.44099" lon="0.99788">
        <ele>137</ele>
        <time>2020-01-13T21:21:15Z</time>
      </trkpt>
      <trkpt lat="44.44136" lon="0.99756">
        <ele>136</ele>
        <time>2020-01-13T21:21:25Z</time>
      </trkpt>
      <trkpt lat="44.44162" lon="0.99722">
        <ele>136</ele>
        <time>2020-01-13T21:21:34Z</time>
      </trkpt>
      <trkpt lat="44.44238" lon="0.99554">
        <ele>130</ele>
        <time>2020-01-13T21:22:07Z</time>
      </trkpt>
      <trkpt lat="44.44233" lon="0.99548">
        <ele>129</ele>
        <time>2020-01-13T21:22:08Z</time>
      </trkpt>
      <trkpt lat="44.44222" lon="0.99551">
        <ele>129</ele>
        <time>2020-01-13T21:22:11Z</time>
      </trkpt>
      <trkpt lat="44.44162" lon="0.99557">
        <ele>127</ele>
        <time>2020-01-13T21:22:25Z</time>
      </trkpt>
      <trkpt lat="44.44117" lon="0.99555">
        <ele>128</ele>
        <time>2020-01-13T21:22:35Z</time>
      </trkpt>
      <trkpt lat="44.44092" lon="0.9956">
        <ele>129</ele>
        <time>2020-01-13T21:22:41Z</time>
      </trkpt>
      <trkpt lat="44.44014" lon="0.99577">
        <ele>130</ele>
        <time>2020-01-13T21:23:00Z</time>
      </trkpt>
      <trkpt lat="44.43942" lon="0.99611">
        <ele>135</ele>
        <time>2020-01-13T21:23:17Z</time>
      </trkpt>
      <trkpt lat="44.43926" lon="0.99617">
        <ele>137</ele>
        <time>2020-01-13T21:23:21Z</time>
      </trkpt>
      <trkpt lat="44.43907" lon="0.99619">
        <ele>138</ele>
        <time>2020-01-13T21:23:26Z</time>
      </trkpt>
      <trkpt lat="44.43892" lon="0.99616">
        <ele>139</ele>
        <time>2020-01-13T21:23:29Z</time>
      </trkpt>
      <trkpt lat="44.43859" lon="0.99604">
        <ele>139</ele>
        <time>2020-01-13T21:23:37Z</time>
      </trkpt>
      <trkpt lat="44.43804" lon="0.99578">
        <ele>137</ele>
        <time>2020-01-13T21:23:51Z</time>
      </trkpt>
      <trkpt lat="44.4375" lon="0.99566">
        <ele>139</ele>
        <time>2020-01-13T21:24:04Z</time>
      </trkpt>
      <trkpt lat="44.43688" lon="0.99558">
        <ele>145</ele>
        <time>2020-01-13T21:24:18Z</time>
      </trkpt>
      <trkpt lat="44.4359" lon="0.9953">
        <ele>148</ele>
        <time>2020-01-13T21:24:42Z</time>
      </trkpt>
      <trkpt lat="44.43558" lon="0.99528">
        <ele>148</ele>
        <time>2020-01-13T21:24:49Z</time>
      </trkpt>
      <trkpt lat="44.43494" lon="0.99533">
        <ele>150</ele>
        <time>2020-01-13T21:25:04Z</time>
      </trkpt>
      <trkpt lat="44.43486" lon="0.99529">
        <ele>150</ele>
        <time>2020-01-13T21:25:06Z</time>
      </trkpt>
      <trkpt lat="44.43453" lon="0.99522">
        <ele>150</ele>
        <time>2020-01-13T21:25:14Z</time>
      </trkpt>
      <trkpt lat="44.43415" lon="0.99504">
        <ele>149</ele>
        <time>2020-01-13T21:25:23Z</time>
      </trkpt>
      <trkpt lat="44.43385" lon="0.99484">
        <ele>153</ele>
        <time>2020-01-13T21:25:31Z</time>
      </trkpt>
      <trkpt lat="44.43369" lon="0.99468">
        <ele>155</ele>
        <time>2020-01-13T21:25:35Z</time>
      </trkpt>
      <trkpt lat="44.43282" lon="0.99357">
        <ele>153</ele>
        <time>2020-01-13T21:26:03Z</time>
      </trkpt>
      <trkpt lat="44.43257" lon="0.99338">
        <ele>152</ele>
        <time>2020-01-13T21:26:10Z</time>
      </trkpt>
      <trkpt lat="44.43231" lon="0.99314">
        <ele>153</ele>
        <time>2020-01-13T21:26:17Z</time>
      </trkpt>
      <trkpt lat="44.43189" lon="0.99296">
        <ele>156</ele>
        <time>2020-01-13T21:26:27Z</time>
      </trkpt>
      <trkpt lat="44.43175" lon="0.99287">
        <ele>156</ele>
        <time>2020-01-13T21:26:31Z</time>
      </trkpt>
      <trkpt lat="44.43159" lon="0.99273">
        <ele>156</ele>
        <time>2020-01-13T21:26:35Z</time>
      </trkpt>
      <trkpt lat="44.43105" lon="0.99204">
        <ele>157</ele>
        <time>2020-01-13T21:26:52Z</time>
      </trkpt>
      <trkpt lat="44.43079" lon="0.99185">
        <ele>155</ele>
        <time>2020-01-13T21:26:59Z</time>
      </trkpt>
      <trkpt lat="44.43058" lon="0.99176">
        <ele>156</ele>
        <time>2020-01-13T21:27:04Z</time>
      </trkpt>
      <trkpt lat="44.43002" lon="0.99168">
        <ele>158</ele>
        <time>2020-01-13T21:27:17Z</time>
      </trkpt>
      <trkpt lat="44.42984" lon="0.9917">
        <ele>159</ele>
        <time>2020-01-13T21:27:22Z</time>
      </trkpt>
      <trkpt lat="44.42953" lon="0.99181">
        <ele>160</ele>
        <time>2020-01-13T21:27:29Z</time>
      </trkpt>
      <trkpt lat="44.42921" lon="0.99198">
        <ele>162</ele>
        <time>2020-01-13T21:27:37Z</time>
      </trkpt>
      <trkpt lat="44.42856" lon="0.99261">
        <ele>165</ele>
        <time>2020-01-13T21:27:55Z</time>
      </trkpt>
      <trkpt lat="44.42818" lon="0.99292">
        <ele>167</ele>
        <time>2020-01-13T21:28:06Z</time>
      </trkpt>
      <trkpt lat="44.42783" lon="0.99313">
        <ele>167</ele>
        <time>2020-01-13T21:28:15Z</time>
      </trkpt>
      <trkpt lat="44.4277" lon="0.99324">
        <ele>166</ele>
        <time>2020-01-13T21:28:18Z</time>
      </trkpt>
      <trkpt lat="44.42757" lon="0.99327">
        <ele>165</ele>
        <time>2020-01-13T21:28:21Z</time>
      </trkpt>
      <trkpt lat="44.42727" lon="0.99343">
        <ele>166</ele>
        <time>2020-01-13T21:28:29Z</time>
      </trkpt>
      <trkpt lat="44.42696" lon="0.99367">
        <ele>167</ele>
        <time>2020-01-13T21:28:37Z</time>
      </trkpt>
      <trkpt lat="44.4268" lon="0.99384">
        <ele>166</ele>
        <time>2020-01-13T21:28:42Z</time>
      </trkpt>
      <trkpt lat="44.4265" lon="0.99437">
        <ele>168</ele>
        <time>2020-01-13T21:28:53Z</time>
      </trkpt>
      <trkpt lat="44.42617" lon="0.99477">
        <ele>170</ele>
        <time>2020-01-13T21:29:03Z</time>
      </trkpt>
      <trkpt lat="44.42582" lon="0.99514">
        <ele>168</ele>
        <time>2020-01-13T21:29:13Z</time>
      </trkpt>
      <trkpt lat="44.42575" lon="0.99543">
        <ele>170</ele>
        <time>2020-01-13T21:29:19Z</time>
      </trkpt>
      <trkpt lat="44.42572" lon="0.99578">
        <ele>172</ele>
        <time>2020-01-13T21:29:24Z</time>
      </trkpt>
      <trkpt lat="44.42554" lon="0.99628">
        <ele>175</ele>
        <time>2020-01-13T21:29:34Z</time>
      </trkpt>
      <trkpt lat="44.42539" lon="0.99656">
        <ele>176</ele>
        <time>2020-01-13T21:29:40Z</time>
      </trkpt>
      <trkpt lat="44.42534" lon="0.99673">
        <ele>176</ele>
        <time>2020-01-13T21:29:43Z</time>
      </trkpt>
      <trkpt lat="44.4251" lon="0.99713">
        <ele>175</ele>
        <time>2020-01-13T21:29:51Z</time>
      </trkpt>
      <trkpt lat="44.42507" lon="0.99727">
        <ele>174</ele>
        <time>2020-01-13T21:29:54Z</time>
      </trkpt>
      <trkpt lat="44.42494" lon="0.99752">
        <ele>173</ele>
        <time>2020-01-13T21:29:59Z</time>
      </trkpt>
      <trkpt lat="44.42489" lon="0.99775">
        <ele>176</ele>
        <time>2020-01-13T21:30:03Z</time>
      </trkpt>
      <trkpt lat="44.42485" lon="0.99783">
        <ele>176</ele>
        <time>2020-01-13T21:30:05Z</time>
      </trkpt>
      <trkpt lat="44.42478" lon="0.99788">
        <ele>177</ele>
        <time>2020-01-13T21:30:06Z</time>
      </trkpt>
      <trkpt lat="44.4246" lon="0.99809">
        <ele>178</ele>
        <time>2020-01-13T21:30:12Z</time>
      </trkpt>
      <trkpt lat="44.42442" lon="0.99824">
        <ele>177</ele>
        <time>2020-01-13T21:30:17Z</time>
      </trkpt>
      <trkpt lat="44.42426" lon="0.99844">
        <ele>175</ele>
        <time>2020-01-13T21:30:22Z</time>
      </trkpt>
      <trkpt lat="44.42391" lon="0.99909">
        <ele>179</ele>
        <time>2020-01-13T21:30:35Z</time>
      </trkpt>
      <trkpt lat="44.42381" lon="0.99939">
        <ele>180</ele>
        <time>2020-01-13T21:30:41Z</time>
      </trkpt>
      <trkpt lat="44.42359" lon="0.99981">
        <ele>178</ele>
        <time>2020-01-13T21:30:50Z</time>
      </trkpt>
      <trkpt lat="44.42352" lon="1.00002">
        <ele>177</ele>
        <time>2020-01-13T21:30:53Z</time>
      </trkpt>
      <trkpt lat="44.42342" lon="1.00096">
        <ele>177</ele>
        <time>2020-01-13T21:31:09Z</time>
      </trkpt>
      <trkpt lat="44.42335" lon="1.00096">
        <ele>176</ele>
        <time>2020-01-13T21:31:11Z</time>
      </trkpt>
      <trkpt lat="44.4231" lon="1.00069">
        <ele>177</ele>
        <time>2020-01-13T21:31:18Z</time>
      </trkpt>
      <trkpt lat="44.42289" lon="1.00052">
        <ele>178</ele>
        <time>2020-01-13T21:31:24Z</time>
      </trkpt>
      <trkpt lat="44.42269" lon="1.00052">
        <ele>180</ele>
        <time>2020-01-13T21:31:29Z</time>
      </trkpt>
      <trkpt lat="44.42254" lon="1.00056">
        <ele>181</ele>
        <time>2020-01-13T21:31:32Z</time>
      </trkpt>
      <trkpt lat="44.42192" lon="1.00094">
        <ele>184</ele>
        <time>2020-01-13T21:31:48Z</time>
      </trkpt>
      <trkpt lat="44.42127" lon="1.00126">
        <ele>187</ele>
        <time>2020-01-13T21:32:04Z</time>
      </trkpt>
      <trkpt lat="44.42117" lon="1.00139">
        <ele>187</ele>
        <time>2020-01-13T21:32:07Z</time>
      </trkpt>
      <trkpt lat="44.42102" lon="1.00167">
        <ele>188</ele>
        <time>2020-01-13T21:32:13Z</time>
      </trkpt>
      <trkpt lat="44.42066" lon="1.00216">
        <ele>191</ele>
        <time>2020-01-13T21:32:25Z</time>
      </trkpt>
      <trkpt lat="44.4203" lon="1.00252">
        <ele>195</ele>
        <time>2020-01-13T21:32:35Z</time>
      </trkpt>
      <trkpt lat="44.42002" lon="1.00272">
        <ele>197</ele>
        <time>2020-01-13T21:32:43Z</time>
      </trkpt>
      <trkpt lat="44.41966" lon="1.00307">
        <ele>197</ele>
        <time>2020-01-13T21:32:53Z</time>
      </trkpt>
      <trkpt lat="44.41943" lon="1.00322">
        <ele>197</ele>
        <time>2020-01-13T21:32:59Z</time>
      </trkpt>
      <trkpt lat="44.41925" lon="1.00328">
        <ele>197</ele>
        <time>2020-01-13T21:33:03Z</time>
      </trkpt>
      <trkpt lat="44.41866" lon="1.00358">
        <ele>197</ele>
        <time>2020-01-13T21:33:18Z</time>
      </trkpt>
      <trkpt lat="44.4185" lon="1.00383">
        <ele>198</ele>
        <time>2020-01-13T21:33:23Z</time>
      </trkpt>
      <trkpt lat="44.41811" lon="1.00459">
        <ele>202</ele>
        <time>2020-01-13T21:33:39Z</time>
      </trkpt>
      <trkpt lat="44.41807" lon="1.00477">
        <ele>203</ele>
        <time>2020-01-13T21:33:42Z</time>
      </trkpt>
      <trkpt lat="44.41802" lon="1.00531">
        <ele>207</ele>
        <time>2020-01-13T21:33:51Z</time>
      </trkpt>
      <trkpt lat="44.41806" lon="1.00539">
        <ele>208</ele>
        <time>2020-01-13T21:33:53Z</time>
      </trkpt>
      <trkpt lat="44.41838" lon="1.00545">
        <ele>210</ele>
        <time>2020-01-13T21:34:00Z</time>
      </trkpt>
      <trkpt lat="44.41872" lon="1.00564">
        <ele>210</ele>
        <time>2020-01-13T21:34:09Z</time>
      </trkpt>
      <trkpt lat="44.41896" lon="1.00581">
        <ele>210</ele>
        <time>2020-01-13T21:34:15Z</time>
      </trkpt>
      <trkpt lat="44.41918" lon="1.00605">
        <ele>209</ele>
        <time>2020-01-13T21:34:22Z</time>
      </trkpt>
      <trkpt lat="44.41928" lon="1.00626">
        <ele>207</ele>
        <time>2020-01-13T21:34:26Z</time>
      </trkpt>
      <trkpt lat="44.41941" lon="1.00699">
        <ele>205</ele>
        <time>2020-01-13T21:34:38Z</time>
      </trkpt>
      <trkpt lat="44.41954" lon="1.00748">
        <ele>205</ele>
        <time>2020-01-13T21:34:47Z</time>
      </trkpt>
      <trkpt lat="44.41983" lon="1.00823">
        <ele>203</ele>
        <time>2020-01-13T21:35:01Z</time>
      </trkpt>
      <trkpt lat="44.41983" lon="1.00851">
        <ele>203</ele>
        <time>2020-01-13T21:35:06Z</time>
      </trkpt>
      <trkpt lat="44.41888" lon="1.00967">
        <ele>210</ele>
        <time>2020-01-13T21:35:35Z</time>
      </trkpt>
      <trkpt lat="44.41819" lon="1.01022">
        <ele>212</ele>
        <time>2020-01-13T21:35:54Z</time>
      </trkpt>
      <trkpt lat="44.41714" lon="1.01049">
        <ele>210</ele>
        <time>2020-01-13T21:36:19Z</time>
      </trkpt>
      <trkpt lat="44.41656" lon="1.01091">
        <ele>206</ele>
        <time>2020-01-13T21:36:34Z</time>
      </trkpt>
      <trkpt lat="44.41575" lon="1.01121">
        <ele>200</ele>
        <time>2020-01-13T21:36:54Z</time>
      </trkpt>
      <trkpt lat="44.41533" lon="1.01176">
        <ele>198</ele>
        <time>2020-01-13T21:37:07Z</time>
      </trkpt>
      <trkpt lat="44.4152" lon="1.01202">
        <ele>197</ele>
        <time>2020-01-13T21:37:12Z</time>
      </trkpt>
      <trkpt lat="44.4151" lon="1.01216">
        <ele>195</ele>
        <time>2020-01-13T21:37:16Z</time>
      </trkpt>
      <trkpt lat="44.41508" lon="1.01222">
        <ele>195</ele>
        <time>2020-01-13T21:37:17Z</time>
      </trkpt>
      <trkpt lat="44.41508" lon="1.01248">
        <ele>195</ele>
        <time>2020-01-13T21:37:21Z</time>
      </trkpt>
      <trkpt lat="44.41423" lon="1.01341">
        <ele>186</ele>
        <time>2020-01-13T21:37:46Z</time>
      </trkpt>
      <trkpt lat="44.41378" lon="1.0137">
        <ele>179</ele>
        <time>2020-01-13T21:37:58Z</time>
      </trkpt>
      <trkpt lat="44.41371" lon="1.01371">
        <ele>178</ele>
        <time>2020-01-13T21:38:00Z</time>
      </trkpt>
      <trkpt lat="44.41352" lon="1.01368">
        <ele>176</ele>
        <time>2020-01-13T21:38:04Z</time>
      </trkpt>
      <trkpt lat="44.41342" lon="1.0137">
        <ele>174</ele>
        <time>2020-01-13T21:38:06Z</time>
      </trkpt>
      <trkpt lat="44.41324" lon="1.01365">
        <ele>172</ele>
        <time>2020-01-13T21:38:11Z</time>
      </trkpt>
      <trkpt lat="44.41316" lon="1.01351">
        <ele>172</ele>
        <time>2020-01-13T21:38:14Z</time>
      </trkpt>
      <trkpt lat="44.41303" lon="1.01347">
        <ele>171</ele>
        <time>2020-01-13T21:38:17Z</time>
      </trkpt>
      <trkpt lat="44.41299" lon="1.0134">
        <ele>171</ele>
        <time>2020-01-13T21:38:18Z</time>
      </trkpt>
      <trkpt lat="44.41294" lon="1.01337">
        <ele>171</ele>
        <time>2020-01-13T21:38:20Z</time>
      </trkpt>
      <trkpt lat="44.41286" lon="1.0134">
        <ele>170</ele>
        <time>2020-01-13T21:38:21Z</time>
      </trkpt>
      <trkpt lat="44.41276" lon="1.0134">
        <ele>169</ele>
        <time>2020-01-13T21:38:24Z</time>
      </trkpt>
      <trkpt lat="44.41264" lon="1.01336">
        <ele>168</ele>
        <time>2020-01-13T21:38:27Z</time>
      </trkpt>
      <trkpt lat="44.41246" lon="1.01334">
        <ele>167</ele>
        <time>2020-01-13T21:38:31Z</time>
      </trkpt>
      <trkpt lat="44.41238" lon="1.01324">
        <ele>166</ele>
        <time>2020-01-13T21:38:33Z</time>
      </trkpt>
      <trkpt lat="44.41222" lon="1.01281">
        <ele>167</ele>
        <time>2020-01-13T21:38:42Z</time>
      </trkpt>
      <trkpt lat="44.41201" lon="1.01246">
        <ele>167</ele>
        <time>2020-01-13T21:38:49Z</time>
      </trkpt>
      <trkpt lat="44.41188" lon="1.01236">
        <ele>167</ele>
        <time>2020-01-13T21:38:53Z</time>
      </trkpt>
      <trkpt lat="44.4117" lon="1.01232">
        <ele>166</ele>
        <time>2020-01-13T21:38:57Z</time>
      </trkpt>
      <trkpt lat="44.41145" lon="1.01234">
        <ele>166</ele>
        <time>2020-01-13T21:39:03Z</time>
      </trkpt>
      <trkpt lat="44.41131" lon="1.01243">
        <ele>165</ele>
        <time>2020-01-13T21:39:06Z</time>
      </trkpt>
      <trkpt lat="44.411" lon="1.01273">
        <ele>162</ele>
        <time>2020-01-13T21:39:15Z</time>
      </trkpt>
      <trkpt lat="44.41081" lon="1.01279">
        <ele>162</ele>
        <time>2020-01-13T21:39:20Z</time>
      </trkpt>
      <trkpt lat="44.41053" lon="1.01281">
        <ele>161</ele>
        <time>2020-01-13T21:39:26Z</time>
      </trkpt>
      <trkpt lat="44.4102" lon="1.01278">
        <ele>159</ele>
        <time>2020-01-13T21:39:34Z</time>
      </trkpt>
      <trkpt lat="44.40953" lon="1.01262">
        <ele>158</ele>
        <time>2020-01-13T21:39:50Z</time>
      </trkpt>
      <trkpt lat="44.4087" lon="1.01261">
        <ele>156</ele>
        <time>2020-01-13T21:40:09Z</time>
      </trkpt>
      <trkpt lat="44.40815" lon="1.01252">
        <ele>155</ele>
        <time>2020-01-13T21:40:22Z</time>
      </trkpt>
      <trkpt lat="44.40756" lon="1.01234">
        <ele>152</ele>
        <time>2020-01-13T21:40:36Z</time>
      </trkpt>
      <trkpt lat="44.40748" lon="1.01229">
        <ele>152</ele>
        <time>2020-01-13T21:40:38Z</time>
      </trkpt>
      <trkpt lat="44.40705" lon="1.01107">
        <ele>155</ele>
        <time>2020-01-13T21:41:01Z</time>
      </trkpt>
      <trkpt lat="44.40686" lon="1.0106">
        <ele>155</ele>
        <time>2020-01-13T21:41:10Z</time>
      </trkpt>
      <trkpt lat="44.4068" lon="1.01036">
        <ele>154</ele>
        <time>2020-01-13T21:41:14Z</time>
      </trkpt>
      <trkpt lat="44.40676" lon="1.0101">
        <ele>154</ele>
        <time>2020-01-13T21:41:19Z</time>
      </trkpt>
      <trkpt lat="44.40677" lon="1.00977">
        <ele>154</ele>
        <time>2020-01-13T21:41:24Z</time>
      </trkpt>
      <trkpt lat="44.40683" lon="1.00932">
        <ele>155</ele>
        <time>2020-01-13T21:41:32Z</time>
      </trkpt>
      <trkpt lat="44.40684" lon="1.00894">
        <ele>155</ele>
        <time>2020-01-13T21:41:38Z</time>
      </trkpt>
      <trkpt lat="44.40681" lon="1.00834">
        <ele>154</ele>
        <time>2020-01-13T21:41:48Z</time>
      </trkpt>
      <trkpt lat="44.40675" lon="1.00811">
        <ele>153</ele>
        <time>2020-01-13T21:41:52Z</time>
      </trkpt>
    </trkseg>
  </trk>
</gpx>